Observation data for Fort Chadbourne on 07/18/2019      Previous  Date  Next       Current Mesonet Observations  Soil Data  Daily Summary Page  Observations in Plain Language
KCH1 180500Z 16008KT 28/20 A2999 RMK A01 T02780195  RH  061%=      5-min Rain = 0
KCH1 180501Z 16006KT 28/20 A2999 RMK A01 T02780195  RH  061%=      5-min Rain = 0
KCH1 180502Z 16008KT 28/20 A2999 RMK A01 T02790196  RH  061%=      5-min Rain = 0
KCH1 180503Z 16008KT 28/20 A2999 RMK A01 T02790196  RH  061%=      5-min Rain = 0
KCH1 180504Z 17008KT 28/20 A2999 RMK A01 T02790196  RH  061%=      5-min Rain = 0
KCH1 180505Z 16005KT 28/20 A2999 RMK A01 T02780196  RH  061%=      5-min Rain = 0
KCH1 180506Z 17005KT 28/20 A30 RMK A01 T02780196  RH  061%=      5-min Rain = 0
KCH1 180507Z 16006KT 28/20 A2999 RMK A01 T02770196  RH  061%=      5-min Rain = 0
KCH1 180508Z 16006KT 28/20 A30 RMK A01 T02770196  RH  062%=      5-min Rain = 0
KCH1 180509Z 16006KT 28/20 A30 RMK A01 T02760196  RH  062%=      5-min Rain = 0
KCH1 180510Z 17007KT 28/20 A30 RMK A01 T02760196  RH  062%=      5-min Rain = 0
KCH1 180511Z 16007KT 28/20 A30 RMK A01 T02760196  RH  062%=      5-min Rain = 0
KCH1 180512Z 16007KT 28/20 A2999 RMK A01 T02760196  RH  062%=      5-min Rain = 0
KCH1 180513Z 16008KT 28/20 A2999 RMK A01 T02760196  RH  062%=      5-min Rain = 0
KCH1 180514Z 16008KT 28/20 A2999 RMK A01 T02760196  RH  062%=      5-min Rain = 0
KCH1 180515Z 16009KT 28/20 A2999 RMK A01 T02760196  RH  062%=      5-min Rain = 0
KCH1 180516Z 16008KT 28/20 A2999 RMK A01 T02770196  RH  061%=      5-min Rain = 0
KCH1 180517Z 16008KT 28/20 A2999 RMK A01 T02770196  RH  061%=      5-min Rain = 0
KCH1 180518Z 16010KT 28/20 A2999 RMK A01 T02770196  RH  061%=      5-min Rain = 0
KCH1 180519Z 16007KT 28/20 A2999 RMK A01 T02780197  RH  061%=      5-min Rain = 0
KCH1 180520Z 17007KT 28/20 A2999 RMK A01 T02770197  RH  061%=      5-min Rain = 0
KCH1 180521Z 16008KT 28/20 A2999 RMK A01 T02770197  RH  062%=      5-min Rain = 0
KCH1 180522Z 16007KT 28/20 A2999 RMK A01 T02760197  RH  062%=      5-min Rain = 0
KCH1 180523Z 16009KT 28/20 A2999 RMK A01 T02760197  RH  062%=      5-min Rain = 0
KCH1 180524Z 17008KT 28/20 A2999 RMK A01 T02760196  RH  062%=      5-min Rain = 0
KCH1 180525Z 17009KT 28/20 A2999 RMK A01 T02760197  RH  062%=      5-min Rain = 0
KCH1 180526Z 17008KT 28/20 A2999 RMK A01 T02760196  RH  062%=      5-min Rain = 0
KCH1 180527Z 16008KT 28/20 A2999 RMK A01 T02770197  RH  062%=      5-min Rain = 0
KCH1 180528Z 17010KT 28/20 A2999 RMK A01 T02770197  RH  062%=      5-min Rain = 0
KCH1 180529Z 16007KT 28/20 A2999 RMK A01 T02770197  RH  062%=      5-min Rain = 0
KCH1 180530Z 17009KT 28/20 A2999 RMK A01 T02770197  RH  062%=      5-min Rain = 0
KCH1 180531Z 16008KT 28/20 A2999 RMK A01 T02770197  RH  062%=      5-min Rain = 0
KCH1 180532Z 17009KT 28/20 A2999 RMK A01 T02760197  RH  062%=      5-min Rain = 0
KCH1 180533Z 16009KT 28/20 A2999 RMK A01 T02760197  RH  062%=      5-min Rain = 0
KCH1 180534Z 17006KT 28/20 A2999 RMK A01 T02760197  RH  062%=      5-min Rain = 0
KCH1 180535Z 17007KT 28/20 A2999 RMK A01 T02760197  RH  062%=      5-min Rain = 0
KCH1 180536Z 16008KT 28/20 A2999 RMK A01 T02760197  RH  062%=      5-min Rain = 0
KCH1 180537Z 16008KT 28/20 A2999 RMK A01 T02750197  RH  062%=      5-min Rain = 0
KCH1 180538Z 17008KT 28/20 A2999 RMK A01 T02750197  RH  063%=      5-min Rain = 0
KCH1 180539Z 16010KT 28/20 A2999 RMK A01 T02750197  RH  063%=      5-min Rain = 0
KCH1 180540Z 16008KT 28/20 A2999 RMK A01 T02750197  RH  063%=      5-min Rain = 0
KCH1 180541Z 16008KT 28/20 A2999 RMK A01 T02750197  RH  062%=      5-min Rain = 0
KCH1 180542Z 16008KT 28/20 A2999 RMK A01 T02750197  RH  062%=      5-min Rain = 0
KCH1 180543Z 16009KT 28/20 A2999 RMK A01 T02750197  RH  062%=      5-min Rain = 0
KCH1 180544Z 17008KT 28/20 A2999 RMK A01 T02750197  RH  062%=      5-min Rain = 0
KCH1 180545Z 17009KT 28/20 A2999 RMK A01 T02760198  RH  062%=      5-min Rain = 0
KCH1 180546Z 17011KT 28/20 A2999 RMK A01 T02760197  RH  062%=      5-min Rain = 0
KCH1 180547Z 17009KT 28/20 A2999 RMK A01 T02760197  RH  062%=      5-min Rain = 0
KCH1 180548Z 17010KT 28/20 A2999 RMK A01 T02760197  RH  062%=      5-min Rain = 0
KCH1 180549Z 16010KT 28/20 A2999 RMK A01 T02760197  RH  062%=      5-min Rain = 0
KCH1 180550Z 16009KT 28/20 A2999 RMK A01 T02760197  RH  062%=      5-min Rain = 0
KCH1 180551Z 17010KT 28/20 A2999 RMK A01 T02760197  RH  062%=      5-min Rain = 0
KCH1 180552Z 16007KT 28/20 A2999 RMK A01 T02760198  RH  062%=      5-min Rain = 0
KCH1 180553Z 17011KT 28/20 A2998 RMK A01 T02760198  RH  063%=      5-min Rain = 0
KCH1 180554Z 16011G16KT 28/20 A2998 RMK A01 T02760198  RH  063%=      5-min Rain = 0
KCH1 180555Z 17011G18KT 28/20 A2998 RMK A01 T02750197  RH  062%=      5-min Rain = 0
KCH1 180556Z 16011G19KT 28/20 A2998 RMK A01 T02760197  RH  062%=      5-min Rain = 0
KCH1 180557Z 16008KT 28/20 A2998 RMK A01 T02760197  RH  062%=      5-min Rain = 0
KCH1 180558Z 16010KT 28/20 A2998 RMK A01 T02760198  RH  062%=      5-min Rain = 0
KCH1 180559Z 17007KT 28/20 A2998 RMK A01 T02760198  RH  062%=      5-min Rain = 0
KCH1 180600Z 17010KT 28/20 A2998 RMK A01 T02760198  RH  062%=      5-min Rain = 0
KCH1 180601Z 16010KT 28/20 A2998 RMK A01 T02760198  RH  062%=      5-min Rain = 0
KCH1 180602Z 16010KT 28/20 A2998 RMK A01 T02760197  RH  062%=      5-min Rain = 0
KCH1 180603Z 17010KT 28/20 A2999 RMK A01 T02760197  RH  062%=      5-min Rain = 0
KCH1 180604Z 17012KT 28/20 A2998 RMK A01 T02760198  RH  063%=      5-min Rain = 0
KCH1 180605Z 17010KT 28/20 A2999 RMK A01 T02760198  RH  062%=      5-min Rain = 0
KCH1 180606Z 17010KT 28/20 A2999 RMK A01 T02760198  RH  062%=      5-min Rain = 0
KCH1 180607Z 16010KT 28/20 A2999 RMK A01 T02760198  RH  062%=      5-min Rain = 0
KCH1 180608Z 17009KT 28/20 A2999 RMK A01 T02760198  RH  063%=      5-min Rain = 0
KCH1 180609Z 16011G16KT 28/20 A2999 RMK A01 T02750198  RH  063%=      5-min Rain = 0
KCH1 180610Z 17009KT 28/20 A2999 RMK A01 T02750198  RH  063%=      5-min Rain = 0
KCH1 180611Z 17009KT 28/20 A2999 RMK A01 T02750198  RH  063%=      5-min Rain = 0
KCH1 180612Z 16009KT 28/20 A2999 RMK A01 T02750198  RH  063%=      5-min Rain = 0
KCH1 180613Z 17009KT 28/20 A2999 RMK A01 T02750198  RH  063%=      5-min Rain = 0
KCH1 180614Z 17007KT 28/20 A2999 RMK A01 T02750198  RH  063%=      5-min Rain = 0
KCH1 180615Z 16010KT 28/20 A2999 RMK A01 T02750198  RH  063%=      5-min Rain = 0
KCH1 180616Z 16010KT 28/20 A2999 RMK A01 T02750198  RH  063%=      5-min Rain = 0
KCH1 180617Z 16010KT 28/20 A2999 RMK A01 T02750198  RH  063%=      5-min Rain = 0
KCH1 180618Z 17010KT 28/20 A2999 RMK A01 T02750198  RH  063%=      5-min Rain = 0
KCH1 180619Z 16008KT 28/20 A2999 RMK A01 T02750198  RH  063%=      5-min Rain = 0
KCH1 180620Z 17009KT 28/20 A2999 RMK A01 T02750198  RH  063%=      5-min Rain = 0
KCH1 180621Z 16009KT 28/20 A2999 RMK A01 T02750198  RH  063%=      5-min Rain = 0
KCH1 180622Z 16008KT 28/20 A2999 RMK A01 T02750198  RH  063%=      5-min Rain = 0
KCH1 180623Z 16011KT 27/20 A2999 RMK A01 T02740198  RH  063%=      5-min Rain = 0
KCH1 180624Z 16009KT 27/20 A2999 RMK A01 T02740198  RH  063%=      5-min Rain = 0
KCH1 180625Z 16008KT 27/20 A2999 RMK A01 T02740198  RH  063%=      5-min Rain = 0
KCH1 180626Z 17008KT 27/20 A2999 RMK A01 T02740198  RH  063%=      5-min Rain = 0
KCH1 180627Z 16009KT 27/20 A2999 RMK A01 T02730198  RH  063%=      5-min Rain = 0
KCH1 180628Z 16008KT 27/20 A2999 RMK A01 T02730198  RH  063%=      5-min Rain = 0
KCH1 180629Z 16008G13KT 27/20 A2999 RMK A01 T02730198  RH  064%=      5-min Rain = 0
KCH1 180630Z 16007KT 27/20 A2999 RMK A01 T02730198  RH  064%=      5-min Rain = 0
KCH1 180631Z 16007KT 27/20 A2999 RMK A01 T02720198  RH  064%=      5-min Rain = 0
KCH1 180632Z 16007KT 27/20 A2999 RMK A01 T02720198  RH  064%=      5-min Rain = 0
KCH1 180633Z 16009KT 27/20 A2999 RMK A01 T02720198  RH  064%=      5-min Rain = 0
KCH1 180634Z 16011KT 27/20 A2999 RMK A01 T02720198  RH  064%=      5-min Rain = 0
KCH1 180635Z 16009KT 27/20 A2999 RMK A01 T02720198  RH  064%=      5-min Rain = 0
KCH1 180636Z 17009KT 27/20 A2999 RMK A01 T02720198  RH  064%=      5-min Rain = 0
KCH1 180637Z 15010KT 27/20 A2999 RMK A01 T02720198  RH  064%=      5-min Rain = 0
KCH1 180638Z 16010KT 27/20 A2999 RMK A01 T02720198  RH  064%=      5-min Rain = 0
KCH1 180639Z 16008KT 27/20 A2999 RMK A01 T02720198  RH  064%=      5-min Rain = 0
KCH1 180640Z 17007KT 27/20 A2999 RMK A01 T02720199  RH  064%=      5-min Rain = 0
KCH1 180641Z 16008KT 27/20 A2999 RMK A01 T02720199  RH  064%=      5-min Rain = 0
KCH1 180642Z 16009KT 27/20 A2999 RMK A01 T02710199  RH  065%=      5-min Rain = 0
KCH1 180643Z 16011KT 27/20 A2999 RMK A01 T02710199  RH  065%=      5-min Rain = 0
KCH1 180644Z 18009KT 27/20 A2999 RMK A01 T02710199  RH  065%=      5-min Rain = 0
KCH1 180645Z 17009KT 27/20 A30 RMK A01 T02710199  RH  065%=      5-min Rain = 0
KCH1 180646Z 17008KT 27/20 A30 RMK A01 T02710199  RH  065%=      5-min Rain = 0
KCH1 180647Z 17007KT 27/20 A30 RMK A01 T02710200  RH  065%=      5-min Rain = 0
KCH1 180648Z 17008KT 27/20 A30 RMK A01 T02710200  RH  065%=      5-min Rain = 0
KCH1 180649Z 17009KT 27/20 A30 RMK A01 T02710200  RH  065%=      5-min Rain = 0
KCH1 180650Z 17009KT 27/20 A30 RMK A01 T02710200  RH  065%=      5-min Rain = 0
KCH1 180651Z 17007KT 27/20 A30 RMK A01 T02710200  RH  065%=      5-min Rain = 0
KCH1 180652Z 16007KT 27/20 A30 RMK A01 T02710200  RH  065%=      5-min Rain = 0
KCH1 180653Z 17008KT 27/20 A30 RMK A01 T02710201  RH  065%=      5-min Rain = 0
KCH1 180654Z 17008KT 27/20 A30 RMK A01 T02700200  RH  066%=      5-min Rain = 0
KCH1 180655Z 17007KT 27/20 A30 RMK A01 T02700201  RH  066%=      5-min Rain = 0
KCH1 180656Z 17010KT 27/20 A30 RMK A01 T02700201  RH  066%=      5-min Rain = 0
KCH1 180657Z 17010KT 27/20 A30 RMK A01 T02700201  RH  066%=      5-min Rain = 0
KCH1 180658Z 18009KT 27/20 A30 RMK A01 T02700201  RH  066%=      5-min Rain = 0
KCH1 180659Z 18009KT 27/20 A30 RMK A01 T02700201  RH  066%=      5-min Rain = 0
KCH1 180700Z 17009KT 27/20 A30 RMK A01 T02700201  RH  066%=      5-min Rain = 0
KCH1 180701Z 18009KT 27/20 A30 RMK A01 T02700201  RH  066%=      5-min Rain = 0
KCH1 180702Z 16011KT 27/20 A30 RMK A01 T02700202  RH  066%=      5-min Rain = 0
KCH1 180703Z 18009KT 27/20 A30 RMK A01 T02700202  RH  066%=      5-min Rain = 0
KCH1 180704Z 17007KT 27/20 A30 RMK A01 T02700202  RH  066%=      5-min Rain = 0
KCH1 180705Z 17007KT 27/20 A30 RMK A01 T02700202  RH  066%=      5-min Rain = 0
KCH1 180706Z 16008G13KT 27/20 A30 RMK A01 T02690202  RH  067%=      5-min Rain = 0
KCH1 180707Z 17010KT 27/20 A30 RMK A01 T02690202  RH  067%=      5-min Rain = 0
KCH1 180708Z 17010KT 27/20 A30 RMK A01 T02680202  RH  067%=      5-min Rain = 0
KCH1 180709Z 16008KT 27/20 A30 RMK A01 T02690202  RH  067%=      5-min Rain = 0
KCH1 180710Z 17007KT 27/20 A30 RMK A01 T02690202  RH  067%=      5-min Rain = 0
KCH1 180711Z 17008KT 27/20 A30 RMK A01 T02690203  RH  067%=      5-min Rain = 0
KCH1 180712Z 17006KT 27/20 A30 RMK A01 T02680202  RH  067%=      5-min Rain = 0
KCH1 180713Z 17007KT 27/20 A30 RMK A01 T02680202  RH  067%=      5-min Rain = 0
KCH1 180714Z 16009KT 27/20 A30 RMK A01 T02680202  RH  067%=      5-min Rain = 0
KCH1 180715Z 16008KT 27/20 A30 RMK A01 T02670202  RH  067%=      5-min Rain = 0
KCH1 180716Z 16005KT 27/20 A30 RMK A01 T02670202  RH  067%=      5-min Rain = 0
KCH1 180717Z 16007KT 27/20 A30 RMK A01 T02670202  RH  068%=      5-min Rain = 0
KCH1 180718Z 16006KT 27/20 A30 RMK A01 T02670202  RH  068%=      5-min Rain = 0
KCH1 180719Z 16005KT 27/20 A30 RMK A01 T02660202  RH  068%=      5-min Rain = 0
KCH1 180720Z 15005KT 27/20 A3001 RMK A01 T02660202  RH  068%=      5-min Rain = 0
KCH1 180721Z 15006KT 27/20 A30 RMK A01 T02660202  RH  068%=      5-min Rain = 0
KCH1 180722Z 16007KT 27/20 A30 RMK A01 T02650202  RH  068%=      5-min Rain = 0
KCH1 180723Z 15005KT 26/20 A30 RMK A01 T02640202  RH  069%=      5-min Rain = 0
KCH1 180724Z 15008KT 26/20 A30 RMK A01 T02640202  RH  069%=      5-min Rain = 0
KCH1 180725Z 16008KT 26/20 A30 RMK A01 T02640202  RH  069%=      5-min Rain = 0
KCH1 180726Z 15006KT 26/20 A30 RMK A01 T02640202  RH  069%=      5-min Rain = 0
KCH1 180727Z 15009KT 26/20 A30 RMK A01 T02630202  RH  069%=      5-min Rain = 0
KCH1 180728Z 15008KT 26/20 A30 RMK A01 T02630202  RH  069%=      5-min Rain = 0
KCH1 180729Z 14006KT 26/20 A30 RMK A01 T02640201  RH  069%=      5-min Rain = 0
KCH1 180730Z 14007KT 26/20 A30 RMK A01 T02640202  RH  069%=      5-min Rain = 0
KCH1 180731Z 14006KT 26/20 A30 RMK A01 T02630202  RH  069%=      5-min Rain = 0
KCH1 180732Z 14006KT 26/20 A30 RMK A01 T02630202  RH  069%=      5-min Rain = 0
KCH1 180733Z 14006KT 26/20 A30 RMK A01 T02620202  RH  069%=      5-min Rain = 0
KCH1 180734Z 14006KT 26/20 A30 RMK A01 T02620202  RH  069%=      5-min Rain = 0
KCH1 180735Z 14007KT 26/20 A30 RMK A01 T02620202  RH  069%=      5-min Rain = 0
KCH1 180736Z 15007KT 26/20 A30 RMK A01 T02620201  RH  069%=      5-min Rain = 0
KCH1 180737Z 14007KT 26/20 A30 RMK A01 T02620201  RH  069%=      5-min Rain = 0
KCH1 180738Z 14007KT 26/20 A30 RMK A01 T02620201  RH  069%=      5-min Rain = 0
KCH1 180739Z 15006KT 26/20 A30 RMK A01 T02610201  RH  070%=      5-min Rain = 0
KCH1 180740Z 15006KT 26/20 A30 RMK A01 T02610201  RH  070%=      5-min Rain = 0
KCH1 180741Z 14008KT 26/20 A30 RMK A01 T02600201  RH  070%=      5-min Rain = 0
KCH1 180742Z 15008KT 26/20 A30 RMK A01 T02600201  RH  070%=      5-min Rain = 0
KCH1 180743Z 14007KT 26/20 A30 RMK A01 T02600201  RH  070%=      5-min Rain = 0
KCH1 180744Z 14007KT 26/20 A30 RMK A01 T02600201  RH  070%=      5-min Rain = 0
KCH1 180745Z 15006KT 26/20 A30 RMK A01 T02600201  RH  070%=      5-min Rain = 0
KCH1 180746Z 15005KT 26/20 A30 RMK A01 T02590200  RH  070%=      5-min Rain = 0
KCH1 180747Z 14006KT 26/20 A30 RMK A01 T02590201  RH  070%=      5-min Rain = 0
KCH1 180748Z 15007KT 26/20 A30 RMK A01 T02590201  RH  070%=      5-min Rain = 0
KCH1 180749Z 15006KT 26/20 A30 RMK A01 T02590201  RH  070%=      5-min Rain = 0
KCH1 180750Z 16009KT 26/20 A30 RMK A01 T02590201  RH  070%=      5-min Rain = 0
KCH1 180751Z 15007KT 26/20 A30 RMK A01 T02590201  RH  070%=      5-min Rain = 0
KCH1 180752Z 15006KT 26/20 A30 RMK A01 T02590201  RH  070%=      5-min Rain = 0
KCH1 180753Z 16008KT 26/20 A30 RMK A01 T02590201  RH  070%=      5-min Rain = 0
KCH1 180754Z 15006KT 26/20 A30 RMK A01 T02590201  RH  070%=      5-min Rain = 0
KCH1 180755Z 17008KT 26/20 A30 RMK A01 T02590201  RH  071%=      5-min Rain = 0
KCH1 180756Z 15008KT 26/20 A2999 RMK A01 T02580201  RH  071%=      5-min Rain = 0
KCH1 180757Z 15008KT 26/20 A2999 RMK A01 T02580202  RH  071%=      5-min Rain = 0
KCH1 180758Z 15007KT 26/20 A2999 RMK A01 T02580202  RH  071%=      5-min Rain = 0
KCH1 180759Z 15007KT 26/20 A2999 RMK A01 T02580202  RH  071%=      5-min Rain = 0
KCH1 180800Z 15006KT 26/20 A2999 RMK A01 T02580202  RH  071%=      5-min Rain = 0
KCH1 180801Z 15008KT 26/20 A2999 RMK A01 T02580202  RH  071%=      5-min Rain = 0
KCH1 180802Z 14007KT 26/20 A2999 RMK A01 T02580202  RH  071%=      5-min Rain = 0
KCH1 180803Z 15007KT 26/20 A2999 RMK A01 T02570202  RH  072%=      5-min Rain = 0
KCH1 180804Z 15007KT 26/20 A2999 RMK A01 T02570202  RH  072%=      5-min Rain = 0
KCH1 180805Z 15007KT 26/20 A2999 RMK A01 T02560202  RH  072%=      5-min Rain = 0
KCH1 180806Z 14004KT 26/20 A2999 RMK A01 T02570202  RH  072%=      5-min Rain = 0
KCH1 180807Z 14004KT 26/20 A2999 RMK A01 T02560202  RH  072%=      5-min Rain = 0
KCH1 180808Z 16005KT 26/20 A2999 RMK A01 T02560202  RH  072%=      5-min Rain = 0
KCH1 180809Z 15006KT 26/20 A2999 RMK A01 T02560203  RH  073%=      5-min Rain = 0
KCH1 180810Z 14006KT 26/20 A2999 RMK A01 T02550202  RH  073%=      5-min Rain = 0
KCH1 180811Z 14006KT 26/20 A2999 RMK A01 T02550203  RH  073%=      5-min Rain = 0
KCH1 180812Z 14005KT 26/20 A2999 RMK A01 T02550202  RH  073%=      5-min Rain = 0
KCH1 180813Z 15006KT 25/20 A30 RMK A01 T02540202  RH  073%=      5-min Rain = 0
KCH1 180814Z 14006KT 25/20 A30 RMK A01 T02540202  RH  073%=      5-min Rain = 0
KCH1 180815Z 14007KT 25/20 A30 RMK A01 T02540202  RH  073%=      5-min Rain = 0
KCH1 180816Z 14006KT 25/20 A30 RMK A01 T02540202  RH  073%=      5-min Rain = 0
KCH1 180817Z 15005KT 25/20 A30 RMK A01 T02540202  RH  073%=      5-min Rain = 0
KCH1 180818Z 13006KT 25/20 A30 RMK A01 T02540202  RH  073%=      5-min Rain = 0
KCH1 180819Z 14008KT 25/20 A30 RMK A01 T02530202  RH  073%=      5-min Rain = 0
KCH1 180820Z 14005KT 25/20 A2999 RMK A01 T02530202  RH  073%=      5-min Rain = 0
KCH1 180821Z 13004KT 25/20 A2999 RMK A01 T02530202  RH  074%=      5-min Rain = 0
KCH1 180822Z 14005KT 25/20 A2999 RMK A01 T02520202  RH  074%=      5-min Rain = 0
KCH1 180823Z 14007KT 25/20 A2999 RMK A01 T02520202  RH  074%=      5-min Rain = 0
KCH1 180824Z 14008KT 25/20 A2999 RMK A01 T02520202  RH  074%=      5-min Rain = 0
KCH1 180825Z 14006KT 25/20 A2999 RMK A01 T02520202  RH  074%=      5-min Rain = 0
KCH1 180826Z 14007KT 25/20 A2999 RMK A01 T02520202  RH  074%=      5-min Rain = 0
KCH1 180827Z 14005KT 25/20 A2999 RMK A01 T02520202  RH  074%=      5-min Rain = 0
KCH1 180828Z 15006KT 25/20 A2999 RMK A01 T02510202  RH  074%=      5-min Rain = 0
KCH1 180829Z 14006KT 25/20 A2999 RMK A01 T02500202  RH  075%=      5-min Rain = 0
KCH1 180830Z 14007KT 25/20 A2999 RMK A01 T02490202  RH  075%=      5-min Rain = 0
KCH1 180831Z 15005KT 25/20 A2999 RMK A01 T02490202  RH  075%=      5-min Rain = 0
KCH1 180832Z 14005KT 25/20 A2999 RMK A01 T02490202  RH  075%=      5-min Rain = 0
KCH1 180833Z 15005KT 25/20 A2999 RMK A01 T02490202  RH  075%=      5-min Rain = 0
KCH1 180834Z 15004KT 25/20 A2999 RMK A01 T02490202  RH  075%=      5-min Rain = 0
KCH1 180835Z 15005KT 25/20 A2999 RMK A01 T02490202  RH  075%=      5-min Rain = 0
KCH1 180836Z 16005KT 25/20 A2999 RMK A01 T02490202  RH  075%=      5-min Rain = 0
KCH1 180837Z 14005KT 25/20 A2999 RMK A01 T02490202  RH  075%=      5-min Rain = 0
KCH1 180838Z 15005KT 25/20 A2999 RMK A01 T02480202  RH  075%=      5-min Rain = 0
KCH1 180839Z 15005KT 25/20 A2999 RMK A01 T02480202  RH  075%=      5-min Rain = 0
KCH1 180840Z 16006KT 25/20 A2999 RMK A01 T02480202  RH  076%=      5-min Rain = 0
KCH1 180841Z 15006KT 25/20 A2999 RMK A01 T02480202  RH  075%=      5-min Rain = 0
KCH1 180842Z 15006KT 25/20 A2999 RMK A01 T02480202  RH  075%=      5-min Rain = 0
KCH1 180843Z 15006KT 25/20 A2999 RMK A01 T02480203  RH  076%=      5-min Rain = 0
KCH1 180844Z 15005KT 25/20 A2999 RMK A01 T02480203  RH  076%=      5-min Rain = 0
KCH1 180845Z 14006KT 25/20 A2999 RMK A01 T02490203  RH  076%=      5-min Rain = 0
KCH1 180846Z 15007KT 25/20 A2999 RMK A01 T02480203  RH  076%=      5-min Rain = 0
KCH1 180847Z 14007KT 25/20 A2999 RMK A01 T02480203  RH  076%=      5-min Rain = 0
KCH1 180848Z 15006KT 25/20 A2999 RMK A01 T02480203  RH  076%=      5-min Rain = 0
KCH1 180849Z 15006KT 25/20 A2999 RMK A01 T02480203  RH  076%=      5-min Rain = 0
KCH1 180850Z 15006KT 25/20 A2999 RMK A01 T02480204  RH  076%=      5-min Rain = 0
KCH1 180851Z 15006KT 25/20 A2999 RMK A01 T02470203  RH  077%=      5-min Rain = 0
KCH1 180852Z 15006KT 25/20 A2999 RMK A01 T02470204  RH  077%=      5-min Rain = 0
KCH1 180853Z 16007KT 25/20 A30 RMK A01 T02470204  RH  077%=      5-min Rain = 0
KCH1 180854Z 15007KT 25/20 A30 RMK A01 T02460204  RH  077%=      5-min Rain = 0
KCH1 180855Z 15005KT 25/20 A30 RMK A01 T02470204  RH  077%=      5-min Rain = 0
KCH1 180856Z 15006KT 25/20 A30 RMK A01 T02460204  RH  077%=      5-min Rain = 0
KCH1 180857Z 15006KT 25/21 A2999 RMK A01 T02470205  RH  077%=      5-min Rain = 0
KCH1 180858Z 15006KT 25/20 A2999 RMK A01 T02460204  RH  077%=      5-min Rain = 0
KCH1 180859Z 14006KT 25/20 A2999 RMK A01 T02460204  RH  077%=      5-min Rain = 0
KCH1 180900Z 15005KT 25/20 A2999 RMK A01 T02460204  RH  078%=      5-min Rain = 0
KCH1 180901Z 15006KT 25/21 A2999 RMK A01 T02460205  RH  078%=      5-min Rain = 0
KCH1 180902Z 15007KT 25/21 A2999 RMK A01 T02450205  RH  078%=      5-min Rain = 0
KCH1 180903Z 14006KT 25/21 A2999 RMK A01 T02450205  RH  078%=      5-min Rain = 0
KCH1 180904Z 14007KT 25/21 A2999 RMK A01 T02450205  RH  078%=      5-min Rain = 0
KCH1 180905Z 14007KT 25/21 A2999 RMK A01 T02450205  RH  078%=      5-min Rain = 0
KCH1 180906Z 14006KT 25/21 A2999 RMK A01 T02450205  RH  078%=      5-min Rain = 0
KCH1 180907Z 15008KT 25/21 A2999 RMK A01 T02450206  RH  078%=      5-min Rain = 0
KCH1 180908Z 15007KT 25/21 A2999 RMK A01 T02450205  RH  078%=      5-min Rain = 0
KCH1 180909Z 15006KT 25/21 A2999 RMK A01 T02450205  RH  078%=      5-min Rain = 0
KCH1 180910Z 14006KT 25/21 A2999 RMK A01 T02450205  RH  078%=      5-min Rain = 0
KCH1 180911Z 15006KT 25/21 A2999 RMK A01 T02450206  RH  079%=      5-min Rain = 0
KCH1 180912Z 15006KT 25/21 A30 RMK A01 T02450206  RH  079%=      5-min Rain = 0
KCH1 180913Z 16006KT 25/21 A30 RMK A01 T02450206  RH  079%=      5-min Rain = 0
KCH1 180914Z 16006KT 25/21 A30 RMK A01 T02450206  RH  079%=      5-min Rain = 0
KCH1 180915Z 15007KT 24/21 A30 RMK A01 T02440206  RH  079%=      5-min Rain = 0
KCH1 180916Z 15007KT 24/21 A30 RMK A01 T02440206  RH  079%=      5-min Rain = 0
KCH1 180917Z 15007KT 24/21 A30 RMK A01 T02440206  RH  079%=      5-min Rain = 0
KCH1 180918Z 15008KT 25/21 A30 RMK A01 T02450207  RH  079%=      5-min Rain = 0
KCH1 180919Z 15006KT 25/21 A30 RMK A01 T02450207  RH  079%=      5-min Rain = 0
KCH1 180920Z 15007KT 25/21 A30 RMK A01 T02460207  RH  079%=      5-min Rain = 0
KCH1 180921Z 16008KT 25/21 A30 RMK A01 T02460207  RH  079%=      5-min Rain = 0
KCH1 180922Z 15007KT 25/21 A2999 RMK A01 T02460208  RH  079%=      5-min Rain = 0
KCH1 180923Z 16008KT 25/21 A2999 RMK A01 T02460208  RH  079%=      5-min Rain = 0
KCH1 180924Z 15006KT 25/21 A2999 RMK A01 T02460208  RH  079%=      5-min Rain = 0
KCH1 180925Z 16007KT 25/21 A2999 RMK A01 T02450208  RH  080%=      5-min Rain = 0
KCH1 180926Z 15006KT 25/21 A2999 RMK A01 T02450208  RH  080%=      5-min Rain = 0
KCH1 180927Z 15005KT 25/21 A30 RMK A01 T02450208  RH  080%=      5-min Rain = 0
KCH1 180928Z 16006KT 24/21 A30 RMK A01 T02440208  RH  080%=      5-min Rain = 0
KCH1 180929Z 16007KT 24/21 A30 RMK A01 T02440208  RH  080%=      5-min Rain = 0
KCH1 180930Z 15007KT 24/21 A30 RMK A01 T02440208  RH  080%=      5-min Rain = 0
KCH1 180931Z 16007KT 24/21 A30 RMK A01 T02440208  RH  080%=      5-min Rain = 0
KCH1 180932Z 15007KT 24/21 A30 RMK A01 T02440208  RH  080%=      5-min Rain = 0
KCH1 180933Z 15007KT 24/21 A30 RMK A01 T02440209  RH  081%=      5-min Rain = 0
KCH1 180934Z 15006KT 24/21 A30 RMK A01 T02430209  RH  081%=      5-min Rain = 0
KCH1 180935Z 15007KT 24/21 A30 RMK A01 T02430209  RH  081%=      5-min Rain = 0
KCH1 180936Z 15008KT 24/21 A30 RMK A01 T02430209  RH  081%=      5-min Rain = 0
KCH1 180937Z 15007KT 24/21 A30 RMK A01 T02430209  RH  081%=      5-min Rain = 0
KCH1 180938Z 14006KT 24/21 A30 RMK A01 T02430209  RH  081%=      5-min Rain = 0
KCH1 180939Z 15007KT 24/21 A30 RMK A01 T02430210  RH  082%=      5-min Rain = 0
KCH1 180940Z 15008KT 24/21 A30 RMK A01 T02420210  RH  082%=      5-min Rain = 0
KCH1 180941Z 14008KT 24/21 A2999 RMK A01 T02420210  RH  082%=      5-min Rain = 0
KCH1 180942Z 15008KT 24/21 A2999 RMK A01 T02420210  RH  082%=      5-min Rain = 0
KCH1 180943Z 14008KT 24/21 A2999 RMK A01 T02420210  RH  082%=      5-min Rain = 0
KCH1 180944Z 15006KT 24/21 A2999 RMK A01 T02420210  RH  082%=      5-min Rain = 0
KCH1 180945Z 14007KT 24/21 A2999 RMK A01 T02420210  RH  082%=      5-min Rain = 0
KCH1 180946Z 15007KT 24/21 A30 RMK A01 T02420211  RH  082%=      5-min Rain = 0
KCH1 180947Z 15007KT 24/21 A30 RMK A01 T02420211  RH  083%=      5-min Rain = 0
KCH1 180948Z 15007KT 24/21 A30 RMK A01 T02420211  RH  083%=      5-min Rain = 0
KCH1 180949Z 16007KT 24/21 A30 RMK A01 T02420211  RH  083%=      5-min Rain = 0
KCH1 180950Z 15006KT 24/21 A30 RMK A01 T02420211  RH  083%=      5-min Rain = 0
KCH1 180951Z 16006KT 24/21 A30 RMK A01 T02420211  RH  083%=      5-min Rain = 0
KCH1 180952Z 14006KT 24/21 A30 RMK A01 T02410211  RH  083%=      5-min Rain = 0
KCH1 180953Z 16006KT 24/21 A30 RMK A01 T02410211  RH  083%=      5-min Rain = 0
KCH1 180954Z 16007KT 24/21 A30 RMK A01 T02410211  RH  083%=      5-min Rain = 0
KCH1 180955Z 15006KT 24/21 A30 RMK A01 T02420211  RH  083%=      5-min Rain = 0
KCH1 180956Z 15006KT 24/21 A30 RMK A01 T02420211  RH  083%=      5-min Rain = 0
KCH1 180957Z 15006KT 24/21 A30 RMK A01 T02410211  RH  083%=      5-min Rain = 0
KCH1 180958Z 15007KT 24/21 A30 RMK A01 T02410211  RH  083%=      5-min Rain = 0
KCH1 180959Z 15006KT 24/21 A30 RMK A01 T02410211  RH  083%=      5-min Rain = 0
KCH1 181000Z 15006KT 24/21 A30 RMK A01 T02410211  RH  084%=      5-min Rain = 0
KCH1 181001Z 15007KT 24/21 A3001 RMK A01 T02410212  RH  084%=      5-min Rain = 0
KCH1 181002Z 16007KT 24/21 A3001 RMK A01 T02410212  RH  084%=      5-min Rain = 0
KCH1 181003Z 16008KT 24/21 A3001 RMK A01 T02410212  RH  084%=      5-min Rain = 0
KCH1 181004Z 15007KT 24/21 A3001 RMK A01 T02410212  RH  084%=      5-min Rain = 0
KCH1 181005Z 15007KT 24/21 A3001 RMK A01 T02410212  RH  084%=      5-min Rain = 0
KCH1 181006Z 15006KT 24/21 A3001 RMK A01 T02410212  RH  084%=      5-min Rain = 0
KCH1 181007Z 15006KT 24/21 A3001 RMK A01 T02410212  RH  084%=      5-min Rain = 0
KCH1 181008Z 15007KT 24/21 A3001 RMK A01 T02400212  RH  084%=      5-min Rain = 0
KCH1 181009Z 15008KT 24/21 A3001 RMK A01 T02400212  RH  084%=      5-min Rain = 0
KCH1 181010Z 16007KT 24/21 A30 RMK A01 T02400212  RH  084%=      5-min Rain = 0
KCH1 181011Z 15008KT 24/21 A3001 RMK A01 T02400212  RH  084%=      5-min Rain = 0
KCH1 181012Z 15008KT 24/21 A30 RMK A01 T02400212  RH  084%=      5-min Rain = 0
KCH1 181013Z 15008KT 24/21 A3001 RMK A01 T02410212  RH  084%=      5-min Rain = 0
KCH1 181014Z 15007KT 24/21 A3001 RMK A01 T02410212  RH  084%=      5-min Rain = 0
KCH1 181015Z 15006KT 24/21 A3001 RMK A01 T02410212  RH  084%=      5-min Rain = 0
KCH1 181016Z 15007KT 24/21 A3001 RMK A01 T02400213  RH  084%=      5-min Rain = 0
KCH1 181017Z 15006KT 24/21 A3001 RMK A01 T02400213  RH  085%=      5-min Rain = 0
KCH1 181018Z 15007KT 24/21 A3001 RMK A01 T02400212  RH  084%=      5-min Rain = 0
KCH1 181019Z 15006KT 24/21 A3001 RMK A01 T02400213  RH  085%=      5-min Rain = 0
KCH1 181020Z 15007KT 24/21 A3001 RMK A01 T02400212  RH  085%=      5-min Rain = 0
KCH1 181021Z 15007KT 24/21 A3001 RMK A01 T02400213  RH  085%=      5-min Rain = 0
KCH1 181022Z 15009KT 24/21 A3001 RMK A01 T02400213  RH  085%=      5-min Rain = 0
KCH1 181023Z 15007KT 24/21 A3001 RMK A01 T02400213  RH  085%=      5-min Rain = 0
KCH1 181024Z 15006KT 24/21 A3001 RMK A01 T02400213  RH  085%=      5-min Rain = 0
KCH1 181025Z 15007KT 24/21 A3001 RMK A01 T02400213  RH  085%=      5-min Rain = 0
KCH1 181026Z 15007KT 24/21 A3001 RMK A01 T02390213  RH  085%=      5-min Rain = 0
KCH1 181027Z 16007KT 24/21 A3001 RMK A01 T02390213  RH  085%=      5-min Rain = 0
KCH1 181028Z 16008KT 24/21 A3001 RMK A01 T02390213  RH  085%=      5-min Rain = 0
KCH1 181029Z 16007KT 24/21 A3001 RMK A01 T02390213  RH  085%=      5-min Rain = 0
KCH1 181030Z 16007KT 24/21 A3001 RMK A01 T02390213  RH  085%=      5-min Rain = 0
KCH1 181031Z 17007KT 24/21 A3001 RMK A01 T02390214  RH  085%=      5-min Rain = 0
KCH1 181032Z 17006KT 24/21 A3001 RMK A01 T02390214  RH  086%=      5-min Rain = 0
KCH1 181033Z 17007KT 24/21 A3001 RMK A01 T02390214  RH  086%=      5-min Rain = 0
KCH1 181034Z 17006KT 24/21 A3001 RMK A01 T02390214  RH  086%=      5-min Rain = 0
KCH1 181035Z 17004KT 24/21 A3001 RMK A01 T02390214  RH  086%=      5-min Rain = 0
KCH1 181036Z 17005KT 24/21 A3001 RMK A01 T02390214  RH  086%=      5-min Rain = 0
KCH1 181037Z 17006KT 24/21 A3001 RMK A01 T02380214  RH  086%=      5-min Rain = 0
KCH1 181038Z 16004KT 24/21 A3001 RMK A01 T02380214  RH  086%=      5-min Rain = 0
KCH1 181039Z 17006KT 24/21 A3001 RMK A01 T02380214  RH  086%=      5-min Rain = 0
KCH1 181040Z 16004KT 24/21 A3001 RMK A01 T02370213  RH  087%=      5-min Rain = 0
KCH1 181041Z 16007KT 24/21 A3001 RMK A01 T02370214  RH  087%=      5-min Rain = 0
KCH1 181042Z 17005KT 24/21 A3001 RMK A01 T02370214  RH  087%=      5-min Rain = 0
KCH1 181043Z 17005KT 24/21 A3001 RMK A01 T02370214  RH  087%=      5-min Rain = 0
KCH1 181044Z 16006KT 24/21 A3001 RMK A01 T02370214  RH  087%=      5-min Rain = 0
KCH1 181045Z 16006KT 24/21 A3001 RMK A01 T02370214  RH  087%=      5-min Rain = 0
KCH1 181046Z 16006KT 24/21 A3001 RMK A01 T02360214  RH  087%=      5-min Rain = 0
KCH1 181047Z 16005KT 24/21 A3001 RMK A01 T02360214  RH  087%=      5-min Rain = 0
KCH1 181048Z 16005KT 24/21 A3001 RMK A01 T02360214  RH  087%=      5-min Rain = 0
KCH1 181049Z 16005KT 24/21 A3001 RMK A01 T02360214  RH  088%=      5-min Rain = 0
KCH1 181050Z 15005KT 24/21 A3002 RMK A01 T02360214  RH  088%=      5-min Rain = 0
KCH1 181051Z 16005KT 24/21 A3002 RMK A01 T02360214  RH  088%=      5-min Rain = 0
KCH1 181052Z 15004KT 24/21 A3002 RMK A01 T02360214  RH  088%=      5-min Rain = 0
KCH1 181053Z 15004KT 24/21 A3002 RMK A01 T02360214  RH  088%=      5-min Rain = 0
KCH1 181054Z 15004KT 24/21 A3002 RMK A01 T02350214  RH  088%=      5-min Rain = 0
KCH1 181055Z 15004KT 24/21 A3002 RMK A01 T02350214  RH  088%=      5-min Rain = 0
KCH1 181056Z 14004KT 23/21 A3002 RMK A01 T02340214  RH  088%=      5-min Rain = 0
KCH1 181057Z 14004KT 23/21 A3002 RMK A01 T02340214  RH  089%=      5-min Rain = 0
KCH1 181058Z 15005KT 23/21 A3002 RMK A01 T02330214  RH  089%=      5-min Rain = 0
KCH1 181059Z 15005KT 23/21 A3002 RMK A01 T02330214  RH  089%=      5-min Rain = 0
KCH1 181100Z 14005KT 23/21 A3002 RMK A01 T02330214  RH  089%=      5-min Rain = 0
KCH1 181101Z 15005KT 23/21 A3002 RMK A01 T02330214  RH  089%=      5-min Rain = 0
KCH1 181102Z 15006KT 23/21 A3002 RMK A01 T02330214  RH  089%=      5-min Rain = 0
KCH1 181103Z 15005KT 23/21 A3002 RMK A01 T02330214  RH  089%=      5-min Rain = 0
KCH1 181104Z 15005KT 23/21 A3002 RMK A01 T02330214  RH  089%=      5-min Rain = 0
KCH1 181105Z 15006KT 23/22 A3002 RMK A01 T02330215  RH  089%=      5-min Rain = 0
KCH1 181106Z 15005KT 23/21 A3002 RMK A01 T02330214  RH  089%=      5-min Rain = 0
KCH1 181107Z 16005KT 23/21 A3002 RMK A01 T02330214  RH  089%=      5-min Rain = 0
KCH1 181108Z 15005KT 23/21 A3002 RMK A01 T02330214  RH  089%=      5-min Rain = 0
KCH1 181109Z 15006KT 23/21 A3002 RMK A01 T02330214  RH  089%=      5-min Rain = 0
KCH1 181110Z 15006KT 23/21 A3002 RMK A01 T02330214  RH  089%=      5-min Rain = 0
KCH1 181111Z 15007KT 23/22 A3002 RMK A01 T02330215  RH  089%=      5-min Rain = 0
KCH1 181112Z 15006KT 23/21 A3002 RMK A01 T02330214  RH  089%=      5-min Rain = 0
KCH1 181113Z 15007KT 23/21 A3002 RMK A01 T02330214  RH  089%=      5-min Rain = 0
KCH1 181114Z 15007KT 23/22 A3002 RMK A01 T02330215  RH  089%=      5-min Rain = 0
KCH1 181115Z 15006KT 23/22 A3001 RMK A01 T02340215  RH  089%=      5-min Rain = 0
KCH1 181116Z 15006KT 23/22 A3001 RMK A01 T02330215  RH  089%=      5-min Rain = 0
KCH1 181117Z 16006KT 23/22 A3001 RMK A01 T02330215  RH  089%=      5-min Rain = 0
KCH1 181118Z 16006KT 23/22 A3001 RMK A01 T02330215  RH  089%=      5-min Rain = 0
KCH1 181119Z 16006KT 23/21 A3001 RMK A01 T02330214  RH  089%=      5-min Rain = 0
KCH1 181120Z 16005KT 23/22 A3001 RMK A01 T02330215  RH  089%=      5-min Rain = 0
KCH1 181121Z 16006KT 23/22 A3002 RMK A01 T02330215  RH  089%=      5-min Rain = 0
KCH1 181122Z 16005KT 23/22 A3002 RMK A01 T02330215  RH  089%=      5-min Rain = 0
KCH1 181123Z 15007KT 23/22 A3002 RMK A01 T02330215  RH  089%=      5-min Rain = 0
KCH1 181124Z 16006KT 23/22 A3002 RMK A01 T02330215  RH  089%=      5-min Rain = 0
KCH1 181125Z 16005KT 23/22 A3002 RMK A01 T02330215  RH  090%=      5-min Rain = 0
KCH1 181126Z 15006KT 23/22 A3002 RMK A01 T02330215  RH  090%=      5-min Rain = 0
KCH1 181127Z 15006KT 23/22 A3002 RMK A01 T02330215  RH  090%=      5-min Rain = 0
KCH1 181128Z 15006KT 23/22 A3002 RMK A01 T02330215  RH  090%=      5-min Rain = 0
KCH1 181129Z 15006KT 23/22 A3002 RMK A01 T02320215  RH  090%=      5-min Rain = 0
KCH1 181130Z 15007KT 23/22 A3002 RMK A01 T02320215  RH  090%=      5-min Rain = 0
KCH1 181131Z 15006KT 23/22 A3001 RMK A01 T02320215  RH  090%=      5-min Rain = 0
KCH1 181132Z 15007KT 23/22 A3001 RMK A01 T02320215  RH  090%=      5-min Rain = 0
KCH1 181133Z 15006KT 23/22 A3001 RMK A01 T02320215  RH  090%=      5-min Rain = 0
KCH1 181134Z 16007KT 23/22 A3001 RMK A01 T02320215  RH  090%=      5-min Rain = 0
KCH1 181135Z 15007KT 23/22 A3001 RMK A01 T02310215  RH  090%=      5-min Rain = 0
KCH1 181136Z 16006KT 23/22 A3001 RMK A01 T02320215  RH  090%=      5-min Rain = 0
KCH1 181137Z 16006KT 23/22 A3001 RMK A01 T02320215  RH  091%=      5-min Rain = 0
KCH1 181138Z 15007KT 23/22 A3001 RMK A01 T02320215  RH  090%=      5-min Rain = 0
KCH1 181139Z 16006KT 23/22 A3001 RMK A01 T02310215  RH  090%=      5-min Rain = 0
KCH1 181140Z 15007KT 23/22 A3001 RMK A01 T02310215  RH  090%=      5-min Rain = 0
KCH1 181141Z 16006KT 23/22 A3001 RMK A01 T02320215  RH  090%=      5-min Rain = 0
KCH1 181142Z 16006KT 23/22 A3001 RMK A01 T02310215  RH  090%=      5-min Rain = 0
KCH1 181143Z 16006KT 23/22 A3001 RMK A01 T02310215  RH  090%=      5-min Rain = 0
KCH1 181144Z 16006KT 23/22 A3001 RMK A01 T02320215  RH  091%=      5-min Rain = 0
KCH1 181145Z 16007KT 23/22 A3001 RMK A01 T02310215  RH  091%=      5-min Rain = 0
KCH1 181146Z 16005KT 23/22 A3001 RMK A01 T02310215  RH  090%=      5-min Rain = 0
KCH1 181147Z 17006KT 23/21 A3001 RMK A01 T02310214  RH  090%=      5-min Rain = 0
KCH1 181148Z 16006KT 23/22 A3001 RMK A01 T02310215  RH  091%=      5-min Rain = 0
KCH1 181149Z 16005KT 23/22 A3001 RMK A01 T02310215  RH  090%=      5-min Rain = 0
KCH1 181150Z 16005KT 23/22 A3001 RMK A01 T02310215  RH  090%=      5-min Rain = 0
KCH1 181151Z 17004KT 23/22 A3001 RMK A01 T02310215  RH  090%=      5-min Rain = 0
KCH1 181152Z 17005KT 23/22 A3001 RMK A01 T02310215  RH  091%=      5-min Rain = 0
KCH1 181153Z 17005KT 23/22 A3001 RMK A01 T02310215  RH  091%=      5-min Rain = 0
KCH1 181154Z 17005KT 23/22 A3002 RMK A01 T02310215  RH  091%=      5-min Rain = 0
KCH1 181155Z 17004KT 23/22 A3002 RMK A01 T02310215  RH  091%=      5-min Rain = 0
KCH1 181156Z 17005KT 23/22 A3002 RMK A01 T02310215  RH  091%=      5-min Rain = 0
KCH1 181157Z 17005KT 23/22 A3002 RMK A01 T02300215  RH  091%=      5-min Rain = 0
KCH1 181158Z 16005KT 23/22 A3002 RMK A01 T02300215  RH  091%=      5-min Rain = 0
KCH1 181159Z 16005KT 23/22 A3002 RMK A01 T02300215  RH  091%=      5-min Rain = 0
KCH1 181200Z 16005KT 23/22 A3002 RMK A01 T02300215  RH  091%=      5-min Rain = 0
KCH1 181201Z 16005KT 23/22 A3002 RMK A01 T02300215  RH  091%=      5-min Rain = 0
KCH1 181202Z 16006KT 23/22 A3002 RMK A01 T02300215  RH  091%=      5-min Rain = 0
KCH1 181203Z 16005KT 23/22 A3002 RMK A01 T02300215  RH  091%=      5-min Rain = 0
KCH1 181204Z 16005KT 23/22 A3002 RMK A01 T02300215  RH  091%=      5-min Rain = 0
KCH1 181205Z 16006KT 23/22 A3002 RMK A01 T02300215  RH  091%=      5-min Rain = 0
KCH1 181206Z 16007KT 23/22 A3002 RMK A01 T02300215  RH  092%=      5-min Rain = 0
KCH1 181207Z 15006KT 23/22 A3002 RMK A01 T02300215  RH  092%=      5-min Rain = 0
KCH1 181208Z 16006KT 23/22 A3002 RMK A01 T02300215  RH  091%=      5-min Rain = 0
KCH1 181209Z 16006KT 23/22 A3002 RMK A01 T02300215  RH  091%=      5-min Rain = 0
KCH1 181210Z 16005KT 23/22 A3002 RMK A01 T02300215  RH  091%=      5-min Rain = 0
KCH1 181211Z 17006KT 23/22 A3002 RMK A01 T02300215  RH  091%=      5-min Rain = 0
KCH1 181212Z 16007KT 23/22 A3002 RMK A01 T02300215  RH  091%=      5-min Rain = 0
KCH1 181213Z 16005KT 23/22 A3002 RMK A01 T02310215  RH  091%=      5-min Rain = 0
KCH1 181214Z 16006KT 23/22 A3002 RMK A01 T02310215  RH  091%=      5-min Rain = 0
KCH1 181215Z 16006KT 23/22 A3002 RMK A01 T02310215  RH  091%=      5-min Rain = 0
KCH1 181216Z 16006KT 23/22 A3002 RMK A01 T02320215  RH  090%=      5-min Rain = 0
KCH1 181217Z 16005KT 23/22 A3002 RMK A01 T02320215  RH  090%=      5-min Rain = 0
KCH1 181218Z 16007KT 23/22 A3002 RMK A01 T02320215  RH  090%=      5-min Rain = 0
KCH1 181219Z 16006KT 23/22 A3002 RMK A01 T02320215  RH  090%=      5-min Rain = 0
KCH1 181220Z 16006KT 23/22 A3002 RMK A01 T02320215  RH  090%=      5-min Rain = 0
KCH1 181221Z 17005KT 23/22 A3002 RMK A01 T02320215  RH  090%=      5-min Rain = 0
KCH1 181222Z 16004KT 23/22 A3002 RMK A01 T02330215  RH  090%=      5-min Rain = 0
KCH1 181223Z 17005KT 23/22 A3002 RMK A01 T02330215  RH  090%=      5-min Rain = 0
KCH1 181224Z 17005KT 23/22 A3002 RMK A01 T02330215  RH  090%=      5-min Rain = 0
KCH1 181225Z 16003KT 23/22 A3002 RMK A01 T02330216  RH  090%=      5-min Rain = 0
KCH1 181226Z 16004KT 23/22 A3002 RMK A01 T02340216  RH  090%=      5-min Rain = 0
KCH1 181227Z 16004KT 23/22 A3002 RMK A01 T02340216  RH  090%=      5-min Rain = 0
KCH1 181228Z 16006KT 23/22 A3002 RMK A01 T02340216  RH  089%=      5-min Rain = 0
KCH1 181229Z 16005KT 23/22 A3002 RMK A01 T02340216  RH  089%=      5-min Rain = 0
KCH1 181230Z 16006KT 23/22 A3002 RMK A01 T02340216  RH  089%=      5-min Rain = 0
KCH1 181231Z 16006KT 24/22 A3003 RMK A01 T02350216  RH  089%=      5-min Rain = 0
KCH1 181232Z 16006KT 24/22 A3003 RMK A01 T02350216  RH  089%=      5-min Rain = 0
KCH1 181233Z 16005KT 24/22 A3003 RMK A01 T02350216  RH  089%=      5-min Rain = 0
KCH1 181234Z 16006KT 24/22 A3003 RMK A01 T02360216  RH  089%=      5-min Rain = 0
KCH1 181235Z 16005KT 24/22 A3003 RMK A01 T02360216  RH  089%=      5-min Rain = 0
KCH1 181236Z 16005KT 24/22 A3003 RMK A01 T02360216  RH  089%=      5-min Rain = 0
KCH1 181237Z 17005KT 24/22 A3003 RMK A01 T02370216  RH  088%=      5-min Rain = 0
KCH1 181238Z 16006KT 24/22 A3003 RMK A01 T02370216  RH  088%=      5-min Rain = 0
KCH1 181239Z 16006KT 24/22 A3003 RMK A01 T02370216  RH  088%=      5-min Rain = 0
KCH1 181240Z 17006KT 24/22 A3003 RMK A01 T02380216  RH  088%=      5-min Rain = 0
KCH1 181241Z 17006KT 24/22 A3003 RMK A01 T02380216  RH  088%=      5-min Rain = 0
KCH1 181242Z 16006KT 24/22 A3003 RMK A01 T02380216  RH  087%=      5-min Rain = 0
KCH1 181243Z 16006KT 24/22 A3003 RMK A01 T02390217  RH  087%=      5-min Rain = 0
KCH1 181244Z 16007KT 24/22 A3003 RMK A01 T02390216  RH  087%=      5-min Rain = 0
KCH1 181245Z 16006KT 24/22 A3003 RMK A01 T02400216  RH  087%=      5-min Rain = 0
KCH1 181246Z 16007KT 24/22 A3003 RMK A01 T02400216  RH  087%=      5-min Rain = 0
KCH1 181247Z 17005KT 24/22 A3003 RMK A01 T02400216  RH  087%=      5-min Rain = 0
KCH1 181248Z 16006KT 24/22 A3003 RMK A01 T02400217  RH  087%=      5-min Rain = 0
KCH1 181249Z 18005KT 24/22 A3003 RMK A01 T02410217  RH  086%=      5-min Rain = 0
KCH1 181250Z 17007KT 24/22 A3003 RMK A01 T02420217  RH  086%=      5-min Rain = 0
KCH1 181251Z 16007KT 24/22 A3003 RMK A01 T02420217  RH  086%=      5-min Rain = 0
KCH1 181252Z 18007KT 24/22 A3003 RMK A01 T02420216  RH  085%=      5-min Rain = 0
KCH1 181253Z 16006KT 24/22 A3003 RMK A01 T02430217  RH  085%=      5-min Rain = 0
KCH1 181254Z 17006KT 24/22 A3003 RMK A01 T02430217  RH  085%=      5-min Rain = 0
KCH1 181255Z 17006KT 24/22 A3003 RMK A01 T02430217  RH  085%=      5-min Rain = 0
KCH1 181256Z 17005KT 24/22 A3003 RMK A01 T02440217  RH  085%=      5-min Rain = 0
KCH1 181257Z 16006KT 25/22 A3003 RMK A01 T02450217  RH  084%=      5-min Rain = 0
KCH1 181258Z 16007KT 25/22 A3003 RMK A01 T02460217  RH  084%=      5-min Rain = 0
KCH1 181259Z 16007KT 25/22 A3003 RMK A01 T02450217  RH  084%=      5-min Rain = 0
KCH1 181300Z 16008KT 25/22 A3003 RMK A01 T02460216  RH  083%=      5-min Rain = 0
KCH1 181301Z 15006KT 25/22 A3003 RMK A01 T02460216  RH  084%=      5-min Rain = 0
KCH1 181302Z 17005KT 25/22 A3002 RMK A01 T02470217  RH  084%=      5-min Rain = 0
KCH1 181303Z 16009KT 25/22 A3002 RMK A01 T02480217  RH  083%=      5-min Rain = 0
KCH1 181304Z 15007KT 25/22 A3002 RMK A01 T02480217  RH  083%=      5-min Rain = 0
KCH1 181305Z 17007KT 25/22 A3003 RMK A01 T02480217  RH  083%=      5-min Rain = 0
KCH1 181306Z 17009KT 25/22 A3003 RMK A01 T02480216  RH  082%=      5-min Rain = 0
KCH1 181307Z 16006KT 25/22 A3003 RMK A01 T02480217  RH  083%=      5-min Rain = 0
KCH1 181308Z 17006KT 25/22 A3003 RMK A01 T02480217  RH  083%=      5-min Rain = 0
KCH1 181309Z 17008KT 25/22 A3003 RMK A01 T02490217  RH  082%=      5-min Rain = 0
KCH1 181310Z 17006KT 25/22 A3003 RMK A01 T02490216  RH  082%=      5-min Rain = 0
KCH1 181311Z 17009KT 25/22 A3003 RMK A01 T02500216  RH  082%=      5-min Rain = 0
KCH1 181312Z 16009KT 25/22 A3003 RMK A01 T02490216  RH  082%=      5-min Rain = 0
KCH1 181313Z 16009KT 25/22 A3003 RMK A01 T02490215  RH  081%=      5-min Rain = 0
KCH1 181314Z 16007KT 25/22 A3003 RMK A01 T02490216  RH  082%=      5-min Rain = 0
KCH1 181315Z 16006KT 25/22 A3003 RMK A01 T02500216  RH  081%=      5-min Rain = 0
KCH1 181316Z 16008KT 25/22 A3003 RMK A01 T02510216  RH  081%=      5-min Rain = 0
KCH1 181317Z 17009KT 25/22 A3003 RMK A01 T02510215  RH  081%=      5-min Rain = 0
KCH1 181318Z 17009KT 25/22 A3003 RMK A01 T02510216  RH  081%=      5-min Rain = 0
KCH1 181319Z 16010KT 25/22 A3003 RMK A01 T02510215  RH  081%=      5-min Rain = 0
KCH1 181320Z 16009KT 25/22 A3003 RMK A01 T02500215  RH  081%=      5-min Rain = 0
KCH1 181321Z 16008KT 25/22 A3003 RMK A01 T02510216  RH  081%=      5-min Rain = 0
KCH1 181322Z 17010KT 25/22 A3003 RMK A01 T02520216  RH  080%=      5-min Rain = 0
KCH1 181323Z 16009KT 25/22 A3003 RMK A01 T02520216  RH  080%=      5-min Rain = 0
KCH1 181324Z 16011KT 25/22 A3003 RMK A01 T02520216  RH  080%=      5-min Rain = 0
KCH1 181325Z 17009KT 25/22 A3003 RMK A01 T02520215  RH  080%=      5-min Rain = 0
KCH1 181326Z 17007KT 25/22 A3003 RMK A01 T02520216  RH  080%=      5-min Rain = 0
KCH1 181327Z 17010KT 25/22 A3003 RMK A01 T02520215  RH  080%=      5-min Rain = 0
KCH1 181328Z 16009KT 25/22 A3003 RMK A01 T02520215  RH  080%=      5-min Rain = 0
KCH1 181329Z 17008KT 25/22 A3003 RMK A01 T02530215  RH  079%=      5-min Rain = 0
KCH1 181330Z 16010KT 25/22 A3003 RMK A01 T02540215  RH  079%=      5-min Rain = 0
KCH1 181331Z 16010KT 25/22 A3003 RMK A01 T02540215  RH  079%=      5-min Rain = 0
KCH1 181332Z 17010KT 25/22 A3003 RMK A01 T02540215  RH  079%=      5-min Rain = 0
KCH1 181333Z 17008KT 25/22 A3003 RMK A01 T02540215  RH  079%=      5-min Rain = 0
KCH1 181334Z 16010KT 26/22 A3003 RMK A01 T02550215  RH  079%=      5-min Rain = 0
KCH1 181335Z 17009KT 26/22 A3003 RMK A01 T02550215  RH  078%=      5-min Rain = 0
KCH1 181336Z 18006KT 26/22 A3003 RMK A01 T02560215  RH  078%=      5-min Rain = 0
KCH1 181337Z 18007KT 26/22 A3003 RMK A01 T02560216  RH  078%=      5-min Rain = 0
KCH1 181338Z 17009KT 26/22 A3003 RMK A01 T02570216  RH  078%=      5-min Rain = 0
KCH1 181339Z 18008KT 26/22 A3003 RMK A01 T02580216  RH  078%=      5-min Rain = 0
KCH1 181340Z 18008KT 26/22 A3003 RMK A01 T02570216  RH  078%=      5-min Rain = 0
KCH1 181341Z 18008KT 26/22 A3003 RMK A01 T02580216  RH  078%=      5-min Rain = 0
KCH1 181342Z 20009KT 26/22 A3003 RMK A01 T02580215  RH  077%=      5-min Rain = 0
KCH1 181343Z 18005KT 26/22 A3003 RMK A01 T02580216  RH  078%=      5-min Rain = 0
KCH1 181344Z 17008KT 26/22 A3003 RMK A01 T02580215  RH  077%=      5-min Rain = 0
KCH1 181345Z 16009KT 26/22 A3003 RMK A01 T02590216  RH  077%=      5-min Rain = 0
KCH1 181346Z 18009G15KT 26/21 A3003 RMK A01 T02600214  RH  076%=      5-min Rain = 0
KCH1 181347Z 18011KT 26/22 A3003 RMK A01 T02600215  RH  076%=      5-min Rain = 0
KCH1 181348Z 17014KT 26/21 A3003 RMK A01 T02590214  RH  076%=      5-min Rain = 0
KCH1 181349Z 18013KT 26/21 A3003 RMK A01 T02590213  RH  076%=      5-min Rain = 0
KCH1 181350Z 17012KT 26/21 A3003 RMK A01 T02580213  RH  076%=      5-min Rain = 0
KCH1 181351Z 18010G15KT 26/21 A3003 RMK A01 T02580213  RH  076%=      5-min Rain = 0
KCH1 181352Z 18012G17KT 26/21 A3003 RMK A01 T02580213  RH  076%=      5-min Rain = 0
KCH1 181353Z 17010KT 26/21 A3003 RMK A01 T02580214  RH  076%=      5-min Rain = 0
KCH1 181354Z 18009KT 26/21 A3003 RMK A01 T02590213  RH  076%=      5-min Rain = 0
KCH1 181355Z 17010KT 26/21 A3003 RMK A01 T02600214  RH  076%=      5-min Rain = 0
KCH1 181356Z 17010KT 26/21 A3003 RMK A01 T02600213  RH  075%=      5-min Rain = 0
KCH1 181357Z 17008KT 26/21 A3003 RMK A01 T02600213  RH  075%=      5-min Rain = 0
KCH1 181358Z 20008KT 26/21 A3003 RMK A01 T02600214  RH  075%=      5-min Rain = 0
KCH1 181359Z 18011KT 26/21 A3003 RMK A01 T02610214  RH  075%=      5-min Rain = 0
KCH1 181400Z 18012KT 26/21 A3003 RMK A01 T02600212  RH  075%=      5-min Rain = 0
KCH1 181401Z 18011KT 26/21 A3003 RMK A01 T02590212  RH  075%=      5-min Rain = 0
KCH1 181402Z 20008KT 26/21 A3003 RMK A01 T02590212  RH  075%=      5-min Rain = 0
KCH1 181403Z 20010KT 26/21 A3003 RMK A01 T02600213  RH  075%=      5-min Rain = 0
KCH1 181404Z 20008KT 26/21 A3003 RMK A01 T02610213  RH  075%=      5-min Rain = 0
KCH1 181405Z 19008KT 26/21 A3003 RMK A01 T02620214  RH  075%=      5-min Rain = 0
KCH1 181406Z 20010KT 26/21 A3003 RMK A01 T02640213  RH  074%=      5-min Rain = 0
KCH1 181407Z 19008KT 26/21 A3003 RMK A01 T02640213  RH  074%=      5-min Rain = 0
KCH1 181408Z 19010KT 26/21 A3003 RMK A01 T02640213  RH  073%=      5-min Rain = 0
KCH1 181409Z 20007KT 26/21 A3003 RMK A01 T02640212  RH  073%=      5-min Rain = 0
KCH1 181410Z 19008KT 27/21 A3003 RMK A01 T02650213  RH  073%=      5-min Rain = 0
KCH1 181411Z 18011G16KT 27/21 A3003 RMK A01 T02670214  RH  073%=      5-min Rain = 0
KCH1 181412Z 19012G17KT 27/21 A3003 RMK A01 T02670212  RH  072%=      5-min Rain = 0
KCH1 181413Z 19012G17KT 27/21 A3003 RMK A01 T02650212  RH  072%=      5-min Rain = 0
KCH1 181414Z 19009KT 26/21 A3003 RMK A01 T02640212  RH  073%=      5-min Rain = 0
KCH1 181415Z 19009G14KT 26/21 A3003 RMK A01 T02630212  RH  074%=      5-min Rain = 0
KCH1 181416Z 19009KT 26/21 A3003 RMK A01 T02640212  RH  073%=      5-min Rain = 0
KCH1 181417Z 19010KT 27/21 A3003 RMK A01 T02650212  RH  073%=      5-min Rain = 0
KCH1 181418Z 20010KT 27/21 A3003 RMK A01 T02650213  RH  073%=      5-min Rain = 0
KCH1 181419Z 20010KT 27/21 A3003 RMK A01 T02660212  RH  072%=      5-min Rain = 0
KCH1 181420Z 18011G16KT 27/21 A3003 RMK A01 T02660213  RH  072%=      5-min Rain = 0
KCH1 181421Z 18010G17KT 27/21 A3003 RMK A01 T02670213  RH  072%=      5-min Rain = 0
KCH1 181422Z 18014G19KT 27/21 A3003 RMK A01 T02670212  RH  072%=      5-min Rain = 0
KCH1 181423Z 18010KT 27/21 A3003 RMK A01 T02650211  RH  072%=      5-min Rain = 0
KCH1 181424Z 18009G17KT 27/21 A3003 RMK A01 T02650212  RH  073%=      5-min Rain = 0
KCH1 181425Z 18012KT 27/21 A3003 RMK A01 T02660212  RH  072%=      5-min Rain = 0
KCH1 181426Z 18013KT 27/21 A3003 RMK A01 T02660211  RH  072%=      5-min Rain = 0
KCH1 181427Z 18011KT 27/21 A3003 RMK A01 T02660212  RH  072%=      5-min Rain = 0
KCH1 181428Z 18014KT 27/21 A3003 RMK A01 T02660212  RH  072%=      5-min Rain = 0
KCH1 181429Z 18013KT 27/21 A3003 RMK A01 T02650212  RH  073%=      5-min Rain = 0
KCH1 181430Z 19012KT 27/21 A3003 RMK A01 T02650212  RH  073%=      5-min Rain = 0
KCH1 181431Z 18011KT 27/21 A3003 RMK A01 T02650212  RH  073%=      5-min Rain = 0
KCH1 181432Z 18010G16KT 27/21 A3003 RMK A01 T02670212  RH  072%=      5-min Rain = 0
KCH1 181433Z 17010G15KT 27/21 A3003 RMK A01 T02670212  RH  072%=      5-min Rain = 0
KCH1 181434Z 18010G16KT 27/21 A3003 RMK A01 T02680213  RH  072%=      5-min Rain = 0
KCH1 181435Z 17012G17KT 27/21 A3003 RMK A01 T02690212  RH  071%=      5-min Rain = 0
KCH1 181436Z 17014KT 27/21 A3002 RMK A01 T02690212  RH  071%=      5-min Rain = 0
KCH1 181437Z 18011G16KT 27/21 A3003 RMK A01 T02690212  RH  071%=      5-min Rain = 0
KCH1 181438Z 18013KT 27/21 A3003 RMK A01 T02690212  RH  071%=      5-min Rain = 0
KCH1 181439Z 19012KT 27/21 A3003 RMK A01 T02680211  RH  071%=      5-min Rain = 0
KCH1 181440Z 18009KT 27/21 A3003 RMK A01 T02660212  RH  072%=      5-min Rain = 0
KCH1 181441Z 18009G14KT 27/21 A3003 RMK A01 T02670212  RH  072%=      5-min Rain = 0
KCH1 181442Z 19011KT 27/21 A3003 RMK A01 T02680212  RH  071%=      5-min Rain = 0
KCH1 181443Z 19013KT 27/21 A3003 RMK A01 T02690213  RH  071%=      5-min Rain = 0
KCH1 181444Z 19011KT 27/21 A3003 RMK A01 T02690212  RH  071%=      5-min Rain = 0
KCH1 181445Z 18010KT 27/21 A3003 RMK A01 T02700212  RH  071%=      5-min Rain = 0
KCH1 181446Z 19009G14KT 27/21 A3003 RMK A01 T02700213  RH  071%=      5-min Rain = 0
KCH1 181447Z 18012G17KT 27/21 A3002 RMK A01 T02710213  RH  071%=      5-min Rain = 0
KCH1 181448Z 18012KT 27/21 A3002 RMK A01 T02720214  RH  070%=      5-min Rain = 0
KCH1 181449Z 18010KT 27/21 A3002 RMK A01 T02740213  RH  070%=      5-min Rain = 0
KCH1 181450Z 18012KT 27/21 A3003 RMK A01 T02740213  RH  070%=      5-min Rain = 0
KCH1 181451Z 20011KT 27/21 A3003 RMK A01 T02730213  RH  070%=      5-min Rain = 0
KCH1 181452Z 19012KT 27/21 A3003 RMK A01 T02730213  RH  070%=      5-min Rain = 0
KCH1 181453Z 19009KT 27/21 A3003 RMK A01 T02730213  RH  070%=      5-min Rain = 0
KCH1 181454Z 19007KT 27/21 A3003 RMK A01 T02740214  RH  070%=      5-min Rain = 0
KCH1 181455Z 17008KT 28/21 A3003 RMK A01 T02760214  RH  069%=      5-min Rain = 0
KCH1 181456Z 18009KT 28/21 A3002 RMK A01 T02770214  RH  069%=      5-min Rain = 0
KCH1 181457Z 20009G14KT 28/22 A3002 RMK A01 T02780216  RH  069%=      5-min Rain = 0
KCH1 181458Z 18009KT 28/22 A3002 RMK A01 T02790215  RH  068%=      5-min Rain = 0
KCH1 181459Z 19008KT 28/22 A3002 RMK A01 T02790215  RH  068%=      5-min Rain = 0
KCH1 181500Z 19010KT 28/22 A3002 RMK A01 T02790215  RH  068%=      5-min Rain = 0
KCH1 181501Z 18011G16KT 28/22 A3002 RMK A01 T02790215  RH  068%=      5-min Rain = 0
KCH1 181502Z 17013KT 28/21 A3002 RMK A01 T02780213  RH  067%=      5-min Rain = 0
KCH1 181503Z 17011KT 28/21 A3002 RMK A01 T02770214  RH  069%=      5-min Rain = 0
KCH1 181504Z 17010KT 28/21 A3002 RMK A01 T02760213  RH  069%=      5-min Rain = 0
KCH1 181505Z 18012KT 28/21 A3002 RMK A01 T02760213  RH  068%=      5-min Rain = 0
KCH1 181506Z 19010G15KT 28/21 A3002 RMK A01 T02750214  RH  069%=      5-min Rain = 0
KCH1 181507Z 19012KT 28/21 A3002 RMK A01 T02750213  RH  069%=      5-min Rain = 0
KCH1 181508Z 20011KT 28/21 A3002 RMK A01 T02750213  RH  069%=      5-min Rain = 0
KCH1 181509Z 19011G17KT 28/21 A3002 RMK A01 T02750214  RH  069%=      5-min Rain = 0
KCH1 181510Z 19011KT 28/21 A3002 RMK A01 T02750213  RH  069%=      5-min Rain = 0
KCH1 181511Z 20012G17KT 28/21 A3002 RMK A01 T02760213  RH  069%=      5-min Rain = 0
KCH1 181512Z 20011G16KT 28/21 A3002 RMK A01 T02760212  RH  068%=      5-min Rain = 0
KCH1 181513Z 20010KT 28/21 A3002 RMK A01 T02750213  RH  069%=      5-min Rain = 0
KCH1 181514Z 20010KT 28/21 A3002 RMK A01 T02760213  RH  069%=      5-min Rain = 0
KCH1 181515Z 21011KT 28/21 A3002 RMK A01 T02770213  RH  068%=      5-min Rain = 0
KCH1 181516Z 20008G14KT 28/21 A3002 RMK A01 T02770214  RH  068%=      5-min Rain = 0
KCH1 181517Z 20008KT 28/22 A3002 RMK A01 T02800215  RH  068%=      5-min Rain = 0
KCH1 181518Z 19012G17KT 28/22 A3002 RMK A01 T02820215  RH  067%=      5-min Rain = 0
KCH1 181519Z 18011KT 28/21 A3002 RMK A01 T02810214  RH  067%=      5-min Rain = 0
KCH1 181520Z 19013G18KT 28/21 A3002 RMK A01 T02800213  RH  067%=      5-min Rain = 0
KCH1 181521Z 19011G17KT 28/21 A3002 RMK A01 T02800213  RH  067%=      5-min Rain = 0
KCH1 181522Z 19012KT 28/21 A3002 RMK A01 T02800213  RH  067%=      5-min Rain = 0
KCH1 181523Z 20011KT 28/21 A3002 RMK A01 T02790213  RH  067%=      5-min Rain = 0
KCH1 181524Z 20008KT 28/21 A3002 RMK A01 T02790213  RH  068%=      5-min Rain = 0
KCH1 181525Z 21007KT 28/22 A3002 RMK A01 T02790215  RH  068%=      5-min Rain = 0
KCH1 181526Z 21008KT 28/21 A3002 RMK A01 T02810214  RH  067%=      5-min Rain = 0
KCH1 181527Z 21008KT 28/22 A3002 RMK A01 T02810216  RH  068%=      5-min Rain = 0
KCH1 181528Z 20010KT 28/22 A3002 RMK A01 T02820215  RH  067%=      5-min Rain = 0
KCH1 181529Z 20009KT 28/22 A3002 RMK A01 T02830216  RH  067%=      5-min Rain = 0
KCH1 181530Z 16011G16KT 28/22 A3002 RMK A01 T02840216  RH  066%=      5-min Rain = 0
KCH1 181531Z 17010KT 28/22 A3002 RMK A01 T02840216  RH  066%=      5-min Rain = 0
KCH1 181532Z 16011KT 29/21 A3002 RMK A01 T02860214  RH  065%=      5-min Rain = 0
KCH1 181533Z 16009KT 29/22 A3002 RMK A01 T02850216  RH  066%=      5-min Rain = 0
KCH1 181534Z 17008KT 29/22 A3002 RMK A01 T02860216  RH  066%=      5-min Rain = 0
KCH1 181535Z 18012KT 29/22 A3002 RMK A01 T02880216  RH  065%=      5-min Rain = 0
KCH1 181536Z 19013KT 29/22 A3002 RMK A01 T02880215  RH  065%=      5-min Rain = 0
KCH1 181537Z 19013KT 29/21 A3002 RMK A01 T02860214  RH  065%=      5-min Rain = 0
KCH1 181538Z 19011KT 28/21 A3002 RMK A01 T02840214  RH  066%=      5-min Rain = 0
KCH1 181539Z 18010G16KT 28/22 A3002 RMK A01 T02830215  RH  067%=      5-min Rain = 0
KCH1 181540Z 18012G18KT 28/22 A3002 RMK A01 T02830215  RH  067%=      5-min Rain = 0
KCH1 181541Z 17010KT 29/22 A3002 RMK A01 T02850217  RH  067%=      5-min Rain = 0
KCH1 181542Z 20011KT 29/22 A3002 RMK A01 T02880217  RH  065%=      5-min Rain = 0
KCH1 181543Z 20008KT 29/22 A3002 RMK A01 T02870216  RH  065%=      5-min Rain = 0
KCH1 181544Z 18009KT 29/22 A3002 RMK A01 T02870217  RH  066%=      5-min Rain = 0
KCH1 181545Z 17009KT 29/22 A3002 RMK A01 T02880217  RH  066%=      5-min Rain = 0
KCH1 181546Z 20009KT 29/22 A3002 RMK A01 T02910217  RH  065%=      5-min Rain = 0
KCH1 181547Z 18006KT 29/22 A3002 RMK A01 T02910218  RH  065%=      5-min Rain = 0
KCH1 181548Z 18010KT 29/22 A3002 RMK A01 T02910218  RH  065%=      5-min Rain = 0
KCH1 181549Z 16009KT 29/22 A3002 RMK A01 T02920218  RH  064%=      5-min Rain = 0
KCH1 181550Z 16010KT 29/22 A3002 RMK A01 T02930218  RH  064%=      5-min Rain = 0
KCH1 181551Z 16006KT 29/22 A3002 RMK A01 T02920216  RH  063%=      5-min Rain = 0
KCH1 181552Z 20006KT 29/22 A3002 RMK A01 T02900218  RH  065%=      5-min Rain = 0
KCH1 181553Z 19007G13KT 29/22 A3002 RMK A01 T02910218  RH  065%=      5-min Rain = 0
KCH1 181554Z 20009G15KT 29/22 A3002 RMK A01 T02930220  RH  065%=      5-min Rain = 0
KCH1 181555Z 18009KT 29/22 A3002 RMK A01 T02940218  RH  064%=      5-min Rain = 0
KCH1 181556Z 20009KT 29/22 A3002 RMK A01 T02940216  RH  063%=      5-min Rain = 0
KCH1 181557Z 18011KT 29/22 A3002 RMK A01 T02930215  RH  063%=      5-min Rain = 0
KCH1 181558Z 17012G17KT 29/22 A3002 RMK A01 T02920216  RH  064%=      5-min Rain = 0
KCH1 181559Z 18015KT 29/22 A3002 RMK A01 T02930215  RH  063%=      5-min Rain = 0
KCH1 181600Z 19013G18KT 29/22 A3002 RMK A01 T02940215  RH  063%=      5-min Rain = 0
KCH1 181601Z 21011G16KT 29/22 A3002 RMK A01 T02930215  RH  063%=      5-min Rain = 0
KCH1 181602Z 19011G16KT 29/22 A3002 RMK A01 T02920215  RH  063%=      5-min Rain = 0
KCH1 181603Z 20010KT 29/22 A3002 RMK A01 T02920215  RH  063%=      5-min Rain = 0
KCH1 181604Z 22011KT 29/22 A3002 RMK A01 T02930216  RH  063%=      5-min Rain = 0
KCH1 181605Z 21009KT 29/21 A3002 RMK A01 T02910214  RH  063%=      5-min Rain = 0
KCH1 181606Z 21010KT 29/22 A3002 RMK A01 T02890216  RH  064%=      5-min Rain = 0
KCH1 181607Z 20013KT 29/22 A3002 RMK A01 T02910217  RH  064%=      5-min Rain = 0
KCH1 181608Z 19015KT 29/22 A3002 RMK A01 T02930216  RH  063%=      5-min Rain = 0
KCH1 181609Z 19008KT 29/22 A3002 RMK A01 T02930216  RH  063%=      5-min Rain = 0
KCH1 181610Z 19010KT 29/22 A3002 RMK A01 T02930216  RH  063%=      5-min Rain = 0
KCH1 181611Z 19010KT 29/22 A3002 RMK A01 T02930215  RH  063%=      5-min Rain = 0
KCH1 181612Z 18011KT 29/22 A3002 RMK A01 T02930216  RH  063%=      5-min Rain = 0
KCH1 181613Z 17010KT 29/22 A3002 RMK A01 T02920217  RH  064%=      5-min Rain = 0
KCH1 181614Z 17009KT 29/22 A3002 RMK A01 T02930218  RH  064%=      5-min Rain = 0
KCH1 181615Z 19008KT 30/22 A3002 RMK A01 T02950218  RH  063%=      5-min Rain = 0
KCH1 181616Z 21009KT 30/22 A3002 RMK A01 T02950218  RH  063%=      5-min Rain = 0
KCH1 181617Z 21011KT 29/22 A3002 RMK A01 T02940215  RH  063%=      5-min Rain = 0
KCH1 181618Z 19009KT 29/22 A3002 RMK A01 T02940217  RH  063%=      5-min Rain = 0
KCH1 181619Z 18010KT 30/22 A3002 RMK A01 T02950215  RH  062%=      5-min Rain = 0
KCH1 181620Z 20010KT 30/22 A3002 RMK A01 T02950217  RH  063%=      5-min Rain = 0
KCH1 181621Z 21012KT 29/22 A3002 RMK A01 T02940216  RH  063%=      5-min Rain = 0
KCH1 181622Z 19011KT 29/22 A3002 RMK A01 T02940216  RH  063%=      5-min Rain = 0
KCH1 181623Z 19010KT 29/22 A3002 RMK A01 T02930216  RH  063%=      5-min Rain = 0
KCH1 181624Z 19011KT 29/22 A3002 RMK A01 T02930216  RH  063%=      5-min Rain = 0
KCH1 181625Z 20009G14KT 29/22 A3002 RMK A01 T02940217  RH  063%=      5-min Rain = 0
KCH1 181626Z 18009KT 30/22 A3002 RMK A01 T02960219  RH  063%=      5-min Rain = 0
KCH1 181627Z 18008KT 30/22 A3002 RMK A01 T02990218  RH  062%=      5-min Rain = 0
KCH1 181628Z 19011KT 30/22 A3002 RMK A01 T02990218  RH  062%=      5-min Rain = 0
KCH1 181629Z 20008KT 30/22 A3002 RMK A01 T02970216  RH  062%=      5-min Rain = 0
KCH1 181630Z 18008KT 30/22 A3002 RMK A01 T02950218  RH  063%=      5-min Rain = 0
KCH1 181631Z 17013KT 30/22 A3002 RMK A01 T02960217  RH  062%=      5-min Rain = 0
KCH1 181632Z 17010KT 30/22 A3002 RMK A01 T02970217  RH  062%=      5-min Rain = 0
KCH1 181633Z 16013KT 30/22 A3002 RMK A01 T03000218  RH  062%=      5-min Rain = 0
KCH1 181634Z 16014G20KT 30/22 A3001 RMK A01 T03010219  RH  061%=      5-min Rain = 0
KCH1 181635Z 17015KT 30/22 A3001 RMK A01 T03010217  RH  061%=      5-min Rain = 0
KCH1 181636Z 18012G17KT 30/22 A3001 RMK A01 T02990217  RH  061%=      5-min Rain = 0
KCH1 181637Z 17009KT 30/22 A3002 RMK A01 T02980218  RH  062%=      5-min Rain = 0
KCH1 181638Z 18011KT 30/22 A3002 RMK A01 T02990218  RH  062%=      5-min Rain = 0
KCH1 181639Z 19013KT 30/22 A3001 RMK A01 T03000217  RH  061%=      5-min Rain = 0
KCH1 181640Z 19012KT 30/22 A3001 RMK A01 T02980216  RH  061%=      5-min Rain = 0
KCH1 181641Z 17013G18KT 30/22 A3001 RMK A01 T02980215  RH  061%=      5-min Rain = 0
KCH1 181642Z 19011KT 30/22 A3001 RMK A01 T03000216  RH  061%=      5-min Rain = 0
KCH1 181643Z 18006KT 30/22 A3001 RMK A01 T03020217  RH  061%=      5-min Rain = 0
KCH1 181644Z 18008KT 30/22 A3001 RMK A01 T03040219  RH  060%=      5-min Rain = 0
KCH1 181645Z 20012KT 31/22 A3001 RMK A01 T03070216  RH  059%=      5-min Rain = 0
KCH1 181646Z 20009KT 31/22 A3001 RMK A01 T03050216  RH  059%=      5-min Rain = 0
KCH1 181647Z 19012KT 30/22 A3001 RMK A01 T03040218  RH  060%=      5-min Rain = 0
KCH1 181648Z 19009KT 30/22 A3001 RMK A01 T03030217  RH  060%=      5-min Rain = 0
KCH1 181649Z 18009KT 30/22 A3001 RMK A01 T03040220  RH  061%=      5-min Rain = 0
KCH1 181650Z 18011G20KT 31/22 A3001 RMK A01 T03070220  RH  060%=      5-min Rain = 0
KCH1 181651Z 17015KT 31/22 A3001 RMK A01 T03080216  RH  058%=      5-min Rain = 0
KCH1 181652Z 18014G19KT 31/22 A3001 RMK A01 T03050215  RH  059%=      5-min Rain = 0
KCH1 181653Z 16014KT 30/22 A3001 RMK A01 T03020215  RH  060%=      5-min Rain = 0
KCH1 181654Z 17013KT 30/22 A3001 RMK A01 T03020216  RH  060%=      5-min Rain = 0
KCH1 181655Z 17010KT 30/22 A3001 RMK A01 T03020216  RH  060%=      5-min Rain = 0
KCH1 181656Z 16011KT 30/22 A3001 RMK A01 T03040217  RH  060%=      5-min Rain = 0
KCH1 181657Z 16012KT 31/22 A3001 RMK A01 T03060217  RH  059%=      5-min Rain = 0
KCH1 181658Z 19012KT 31/22 A3001 RMK A01 T03070218  RH  059%=      5-min Rain = 0
KCH1 181659Z 18011G16KT 31/22 A3001 RMK A01 T03090219  RH  059%=      5-min Rain = 0
KCH1 181700Z 18012KT 31/22 A3001 RMK A01 T03100218  RH  058%=      5-min Rain = 0
KCH1 181701Z 19010KT 31/22 A3001 RMK A01 T03090217  RH  058%=      5-min Rain = 0
KCH1 181702Z 20008KT 31/22 A3001 RMK A01 T03070217  RH  058%=      5-min Rain = 0
KCH1 181703Z 18010KT 31/22 A3001 RMK A01 T03060219  RH  060%=      5-min Rain = 0
KCH1 181704Z 18012KT 31/22 A30 RMK A01 T03080217  RH  058%=      5-min Rain = 0
KCH1 181705Z 16010KT 31/22 A3001 RMK A01 T03090218  RH  058%=      5-min Rain = 0
KCH1 181706Z 17010KT 31/22 A3001 RMK A01 T03090218  RH  059%=      5-min Rain = 0
KCH1 181707Z 18007KT 31/22 A3001 RMK A01 T03100218  RH  058%=      5-min Rain = 0
KCH1 181708Z 18009KT 31/22 A3001 RMK A01 T03110219  RH  058%=      5-min Rain = 0
KCH1 181709Z 20014KT 31/22 A3001 RMK A01 T03110217  RH  058%=      5-min Rain = 0
KCH1 181710Z 19012KT 31/22 A3001 RMK A01 T03110216  RH  057%=      5-min Rain = 0
KCH1 181711Z 19012KT 31/21 A3001 RMK A01 T03100214  RH  057%=      5-min Rain = 0
KCH1 181712Z 19009KT 31/22 A3001 RMK A01 T03060215  RH  058%=      5-min Rain = 0
KCH1 181713Z 19010G15KT 31/22 A3001 RMK A01 T03070218  RH  059%=      5-min Rain = 0
KCH1 181714Z 18011G16KT 31/22 A3001 RMK A01 T03090217  RH  058%=      5-min Rain = 0
KCH1 181715Z 17008G13KT 31/22 A3001 RMK A01 T03090218  RH  058%=      5-min Rain = 0
KCH1 181716Z 17012KT 31/22 A30 RMK A01 T03110217  RH  057%=      5-min Rain = 0
KCH1 181717Z 19014KT 31/22 A30 RMK A01 T03120217  RH  057%=      5-min Rain = 0
KCH1 181718Z 18015KT 31/22 A30 RMK A01 T03120215  RH  056%=      5-min Rain = 0
KCH1 181719Z 18013KT 31/22 A30 RMK A01 T03110215  RH  057%=      5-min Rain = 0
KCH1 181720Z 18013G19KT 31/22 A30 RMK A01 T03110215  RH  057%=      5-min Rain = 0
KCH1 181721Z 20015KT 31/22 A30 RMK A01 T03110215  RH  057%=      5-min Rain = 0
KCH1 181722Z 20012G17KT 31/21 A30 RMK A01 T03110214  RH  056%=      5-min Rain = 0
KCH1 181723Z 19013KT 31/22 A30 RMK A01 T03110215  RH  057%=      5-min Rain = 0
KCH1 181724Z 18013KT 31/22 A30 RMK A01 T03120216  RH  057%=      5-min Rain = 0
KCH1 181725Z 18013KT 31/22 A30 RMK A01 T03130215  RH  056%=      5-min Rain = 0
KCH1 181726Z 20012G17KT 31/22 A30 RMK A01 T03140215  RH  056%=      5-min Rain = 0
KCH1 181727Z 18010KT 31/22 A30 RMK A01 T03130217  RH  057%=      5-min Rain = 0
KCH1 181728Z 20010G15KT 32/22 A30 RMK A01 T03150217  RH  056%=      5-min Rain = 0
KCH1 181729Z 21009KT 32/22 A30 RMK A01 T03160218  RH  056%=      5-min Rain = 0
KCH1 181730Z 21014KT 32/22 A30 RMK A01 T03180216  RH  055%=      5-min Rain = 0
KCH1 181731Z 20009KT 32/22 A30 RMK A01 T03160216  RH  056%=      5-min Rain = 0
KCH1 181732Z 20012KT 32/22 A30 RMK A01 T03160215  RH  055%=      5-min Rain = 0
KCH1 181733Z 20013G20KT 32/22 A30 RMK A01 T03170216  RH  055%=      5-min Rain = 0
KCH1 181734Z 19014G20KT 32/22 A30 RMK A01 T03170215  RH  055%=      5-min Rain = 0
KCH1 181735Z 19013KT 32/22 A30 RMK A01 T03160216  RH  055%=      5-min Rain = 0
KCH1 181736Z 18015KT 31/22 A30 RMK A01 T03140215  RH  056%=      5-min Rain = 0
KCH1 181737Z 18014KT 31/21 A30 RMK A01 T03120213  RH  056%=      5-min Rain = 0
KCH1 181738Z 19011KT 31/22 A30 RMK A01 T03110215  RH  057%=      5-min Rain = 0
KCH1 181739Z 19012KT 31/22 A30 RMK A01 T03130215  RH  056%=      5-min Rain = 0
KCH1 181740Z 19010KT 31/22 A30 RMK A01 T03140216  RH  056%=      5-min Rain = 0
KCH1 181741Z 18016KT 32/22 A2999 RMK A01 T03160216  RH  055%=      5-min Rain = 0
KCH1 181742Z 18012G17KT 32/22 A2999 RMK A01 T03170215  RH  055%=      5-min Rain = 0
KCH1 181743Z 18007KT 32/22 A30 RMK A01 T03170217  RH  055%=      5-min Rain = 0
KCH1 181744Z 18009KT 32/22 A30 RMK A01 T03200218  RH  055%=      5-min Rain = 0
KCH1 181745Z 19011G16KT 32/22 A2999 RMK A01 T03220218  RH  054%=      5-min Rain = 0
KCH1 181746Z 17014KT 32/22 A2999 RMK A01 T03220216  RH  054%=      5-min Rain = 0
KCH1 181747Z 18010KT 32/22 A2999 RMK A01 T03210215  RH  054%=      5-min Rain = 0
KCH1 181748Z 19011KT 32/22 A2999 RMK A01 T03200215  RH  054%=      5-min Rain = 0
KCH1 181749Z 16014KT 32/22 A2999 RMK A01 T03220216  RH  054%=      5-min Rain = 0
KCH1 181750Z 17015KT 32/21 A2999 RMK A01 T03230213  RH  052%=      5-min Rain = 0
KCH1 181751Z 18009G14KT 32/22 A2999 RMK A01 T03210216  RH  054%=      5-min Rain = 0
KCH1 181752Z 17010KT 32/22 A2999 RMK A01 T03220216  RH  054%=      5-min Rain = 0
KCH1 181753Z 16009KT 32/22 A2999 RMK A01 T03220216  RH  053%=      5-min Rain = 0
KCH1 181754Z 17014KT 32/22 A2999 RMK A01 T03230216  RH  053%=      5-min Rain = 0
KCH1 181755Z 18010KT 32/22 A2999 RMK A01 T03230216  RH  053%=      5-min Rain = 0
KCH1 181756Z 21009G17KT 32/22 A2999 RMK A01 T03240217  RH  053%=      5-min Rain = 0
KCH1 181757Z 19016KT 33/21 A2999 RMK A01 T03260214  RH  052%=      5-min Rain = 0
KCH1 181758Z 19014KT 32/21 A2999 RMK A01 T03240211  RH  051%=      5-min Rain = 0
KCH1 181759Z 19012KT 32/21 A2999 RMK A01 T03220212  RH  052%=      5-min Rain = 0
KCH1 181800Z 20012KT 32/21 A2999 RMK A01 T03210212  RH  053%=      5-min Rain = 0
KCH1 181801Z 21013G18KT 32/21 A2999 RMK A01 T03220214  RH  053%=      5-min Rain = 0
KCH1 181802Z 20011KT 32/22 A2999 RMK A01 T03220215  RH  053%=      5-min Rain = 0
KCH1 181803Z 20011G16KT 32/22 A2999 RMK A01 T03240215  RH  053%=      5-min Rain = 0
KCH1 181804Z 19009KT 32/22 A2998 RMK A01 T03240215  RH  053%=      5-min Rain = 0
KCH1 181805Z 17013G19KT 33/22 A2999 RMK A01 T03250216  RH  053%=      5-min Rain = 0
KCH1 181806Z 17014KT 33/21 A2998 RMK A01 T03250213  RH  052%=      5-min Rain = 0
KCH1 181807Z 17012G18KT 32/21 A2998 RMK A01 T03240213  RH  052%=      5-min Rain = 0
KCH1 181808Z 18013G19KT 32/21 A2998 RMK A01 T03240213  RH  052%=      5-min Rain = 0
KCH1 181809Z 18016KT 33/21 A2998 RMK A01 T03250208  RH  050%=      5-min Rain = 0
KCH1 181810Z 18014KT 33/21 A2999 RMK A01 T03250211  RH  051%=      5-min Rain = 0
KCH1 181811Z 19014KT 32/21 A2998 RMK A01 T03240211  RH  051%=      5-min Rain = 0
KCH1 181812Z 19011KT 33/21 A2999 RMK A01 T03250211  RH  051%=      5-min Rain = 0
KCH1 181813Z 19010G15KT 33/21 A2998 RMK A01 T03270212  RH  051%=      5-min Rain = 0
KCH1 181814Z 21012KT 33/21 A2998 RMK A01 T03290213  RH  051%=      5-min Rain = 0
KCH1 181815Z 21012KT 33/21 A2998 RMK A01 T03280214  RH  051%=      5-min Rain = 0
KCH1 181816Z 19009KT 33/22 A2999 RMK A01 T03280215  RH  052%=      5-min Rain = 0
KCH1 181817Z 19008KT 33/22 A2999 RMK A01 T03290215  RH  051%=      5-min Rain = 0
KCH1 181818Z 18008G14KT 33/22 A2998 RMK A01 T03300216  RH  051%=      5-min Rain = 0
KCH1 181819Z 19012G19KT 33/22 A2998 RMK A01 T03320216  RH  051%=      5-min Rain = 0
KCH1 181820Z 19015KT 33/21 A2998 RMK A01 T03340214  RH  050%=      5-min Rain = 0
KCH1 181821Z 20017KT 33/21 A2998 RMK A01 T03320211  RH  049%=      5-min Rain = 0
KCH1 181822Z 21014KT 33/21 A2998 RMK A01 T03280209  RH  050%=      5-min Rain = 0
KCH1 181823Z 21015G20KT 33/21 A2998 RMK A01 T03250209  RH  050%=      5-min Rain = 0
KCH1 181824Z 20012G17KT 33/21 A2998 RMK A01 T03260210  RH  051%=      5-min Rain = 0
KCH1 181825Z 19011KT 33/21 A2998 RMK A01 T03280210  RH  050%=      5-min Rain = 0
KCH1 181826Z 19012KT 33/21 A2998 RMK A01 T03300211  RH  050%=      5-min Rain = 0
KCH1 181827Z 18016KT 33/21 A2998 RMK A01 T03310210  RH  049%=      5-min Rain = 0
KCH1 181828Z 19014G20KT 33/21 A2998 RMK A01 T03300210  RH  049%=      5-min Rain = 0
KCH1 181829Z 20014KT 33/21 A2998 RMK A01 T03300211  RH  050%=      5-min Rain = 0
KCH1 181830Z 20015KT 33/21 A2998 RMK A01 T03300210  RH  049%=      5-min Rain = 0
KCH1 181831Z 21013KT 33/21 A2998 RMK A01 T03300210  RH  049%=      5-min Rain = 0
KCH1 181832Z 21010KT 33/21 A2998 RMK A01 T03290210  RH  050%=      5-min Rain = 0
KCH1 181833Z 21008KT 33/21 A2998 RMK A01 T03300212  RH  050%=      5-min Rain = 0
KCH1 181834Z 20011KT 33/21 A2998 RMK A01 T03330212  RH  049%=      5-min Rain = 0
KCH1 181835Z 20012G18KT 34/21 A2998 RMK A01 T03360210  RH  048%=      5-min Rain = 0
KCH1 181836Z 20010KT 34/21 A2998 RMK A01 T03360209  RH  047%=      5-min Rain = 0
KCH1 181837Z 20014KT 34/21 A2998 RMK A01 T03350210  RH  048%=      5-min Rain = 0
KCH1 181838Z 20012KT 33/21 A2997 RMK A01 T03340209  RH  048%=      5-min Rain = 0
KCH1 181839Z 19011KT 33/21 A2997 RMK A01 T03330209  RH  048%=      5-min Rain = 0
KCH1 181840Z 19011G17KT 33/21 A2997 RMK A01 T03320211  RH  049%=      5-min Rain = 0
KCH1 181841Z 19013KT 33/21 A2997 RMK A01 T03320209  RH  049%=      5-min Rain = 0
KCH1 181842Z 20011KT 33/21 A2997 RMK A01 T03310210  RH  049%=      5-min Rain = 0
KCH1 181843Z 20014KT 33/21 A2997 RMK A01 T03310210  RH  049%=      5-min Rain = 0
KCH1 181844Z 20016KT 33/21 A2997 RMK A01 T03330208  RH  048%=      5-min Rain = 0
KCH1 181845Z 19017G22KT 33/21 A2997 RMK A01 T03340208  RH  048%=      5-min Rain = 0
KCH1 181846Z 19012G17KT 33/21 A2997 RMK A01 T03330208  RH  048%=      5-min Rain = 0
KCH1 181847Z 20012KT 33/21 A2997 RMK A01 T03340208  RH  048%=      5-min Rain = 0
KCH1 181848Z 21014KT 33/21 A2997 RMK A01 T03340207  RH  048%=      5-min Rain = 0
KCH1 181849Z 20012KT 33/21 A2997 RMK A01 T03320206  RH  048%=      5-min Rain = 0
KCH1 181850Z 20012G17KT 33/21 A2997 RMK A01 T03330209  RH  048%=      5-min Rain = 0
KCH1 181851Z 20015KT 34/21 A2997 RMK A01 T03350209  RH  048%=      5-min Rain = 0
KCH1 181852Z 18013KT 33/21 A2997 RMK A01 T03340210  RH  048%=      5-min Rain = 0
KCH1 181853Z 18010KT 34/21 A2997 RMK A01 T03350211  RH  048%=      5-min Rain = 0
KCH1 181854Z 17011G17KT 34/21 A2997 RMK A01 T03350212  RH  048%=      5-min Rain = 0
KCH1 181855Z 17015G21KT 34/21 A2996 RMK A01 T03370210  RH  047%=      5-min Rain = 0
KCH1 181856Z 17014G19KT 34/21 A2996 RMK A01 T03380206  RH  046%=      5-min Rain = 0
KCH1 181857Z 17013KT 34/20 A2996 RMK A01 T03380203  RH  045%=      5-min Rain = 0
KCH1 181858Z 18014KT 34/20 A2996 RMK A01 T03400203  RH  045%=      5-min Rain = 0
KCH1 181859Z 18011KT 34/21 A2996 RMK A01 T03400205  RH  045%=      5-min Rain = 0
KCH1 181900Z 20007KT 34/21 A2996 RMK A01 T03400211  RH  047%=      5-min Rain = 0
KCH1 181901Z 18014KT 34/21 A2996 RMK A01 T03430209  RH  046%=      5-min Rain = 0
KCH1 181902Z 18013KT 34/21 A2996 RMK A01 T03410205  RH  045%=      5-min Rain = 0
KCH1 181903Z 18012G17KT 34/21 A2996 RMK A01 T03390207  RH  046%=      5-min Rain = 0
KCH1 181904Z 19014KT 34/21 A2996 RMK A01 T03400205  RH  045%=      5-min Rain = 0
KCH1 181905Z 18013KT 34/21 A2996 RMK A01 T03400206  RH  045%=      5-min Rain = 0
KCH1 181906Z 18010KT 34/21 A2996 RMK A01 T03410206  RH  045%=      5-min Rain = 0
KCH1 181907Z 17011KT 34/21 A2996 RMK A01 T03430206  RH  045%=      5-min Rain = 0
KCH1 181908Z 17012KT 34/21 A2996 RMK A01 T03440206  RH  045%=      5-min Rain = 0
KCH1 181909Z 20010KT 35/21 A2996 RMK A01 T03460206  RH  044%=      5-min Rain = 0
KCH1 181910Z 20012G19KT 35/21 A2996 RMK A01 T03470206  RH  044%=      5-min Rain = 0
KCH1 181911Z 20012KT 35/21 A2996 RMK A01 T03450205  RH  044%=      5-min Rain = 0
KCH1 181912Z 19012KT 34/20 A2996 RMK A01 T03420203  RH  044%=      5-min Rain = 0
KCH1 181913Z 18012KT 34/21 A2996 RMK A01 T03420205  RH  045%=      5-min Rain = 0
KCH1 181914Z 16012KT 34/21 A2996 RMK A01 T03420206  RH  045%=      5-min Rain = 0
KCH1 181915Z 17010KT 34/21 A2996 RMK A01 T03420207  RH  045%=      5-min Rain = 0
KCH1 181916Z 17009KT 34/21 A2996 RMK A01 T03410208  RH  046%=      5-min Rain = 0
KCH1 181917Z 17012G17KT 34/21 A2996 RMK A01 T03440211  RH  046%=      5-min Rain = 0
KCH1 181918Z 17014G20KT 35/21 A2996 RMK A01 T03480211  RH  045%=      5-min Rain = 0
KCH1 181919Z 16015KT 35/21 A2996 RMK A01 T03490208  RH  044%=      5-min Rain = 0
KCH1 181920Z 16013G18KT 35/21 A2996 RMK A01 T03470206  RH  044%=      5-min Rain = 0
KCH1 181921Z 16014KT 35/21 A2996 RMK A01 T03460206  RH  044%=      5-min Rain = 0
KCH1 181922Z 17013KT 35/21 A2995 RMK A01 T03480206  RH  043%=      5-min Rain = 0
KCH1 181923Z 18014G19KT 35/21 A2995 RMK A01 T03500206  RH  043%=      5-min Rain = 0
KCH1 181924Z 18018KT 35/20 A2995 RMK A01 T03480200  RH  042%=      5-min Rain = 0
KCH1 181925Z 17016G22KT 34/20 A2996 RMK A01 T03440201  RH  043%=      5-min Rain = 0
KCH1 181926Z 18014G19KT 34/20 A2996 RMK A01 T03430201  RH  043%=      5-min Rain = 0
KCH1 181927Z 18012G17KT 34/20 A2996 RMK A01 T03430201  RH  043%=      5-min Rain = 0
KCH1 181928Z 19012G18KT 34/20 A2996 RMK A01 T03440202  RH  043%=      5-min Rain = 0
KCH1 181929Z 18014KT 35/20 A2996 RMK A01 T03450203  RH  043%=      5-min Rain = 0
KCH1 181930Z 18011G18KT 34/20 A2996 RMK A01 T03440203  RH  044%=      5-min Rain = 0
KCH1 181931Z 19016KT 34/20 A2995 RMK A01 T03430203  RH  044%=      5-min Rain = 0
KCH1 181932Z 21014KT 34/20 A2995 RMK A01 T03420203  RH  044%=      5-min Rain = 0
KCH1 181933Z 20012G17KT 34/20 A2995 RMK A01 T03430204  RH  044%=      5-min Rain = 0
KCH1 181934Z 19012KT 34/21 A2995 RMK A01 T03440205  RH  044%=      5-min Rain = 0
KCH1 181935Z 20011KT 35/21 A2995 RMK A01 T03470206  RH  044%=      5-min Rain = 0
KCH1 181936Z 21014KT 35/21 A2995 RMK A01 T03470205  RH  043%=      5-min Rain = 0
KCH1 181937Z 20013G18KT 35/20 A2995 RMK A01 T03470204  RH  043%=      5-min Rain = 0
KCH1 181938Z 21014G19KT 35/20 A2995 RMK A01 T03450203  RH  043%=      5-min Rain = 0
KCH1 181939Z 20010KT 34/20 A2995 RMK A01 T03430203  RH  044%=      5-min Rain = 0
KCH1 181940Z 19009KT 34/20 A2995 RMK A01 T03430204  RH  044%=      5-min Rain = 0
KCH1 181941Z 19015G20KT 35/21 A2995 RMK A01 T03450205  RH  044%=      5-min Rain = 0
KCH1 181942Z 19014KT 35/20 A2995 RMK A01 T03460203  RH  043%=      5-min Rain = 0
KCH1 181943Z 19009KT 35/20 A2995 RMK A01 T03450204  RH  044%=      5-min Rain = 0
KCH1 181944Z 17011G17KT 35/21 A2995 RMK A01 T03470205  RH  044%=      5-min Rain = 0
KCH1 181945Z 17011KT 35/20 A2995 RMK A01 T03470202  RH  043%=      5-min Rain = 0
KCH1 181946Z 18012KT 35/20 A2995 RMK A01 T03450203  RH  044%=      5-min Rain = 0
KCH1 181947Z 18013KT 35/20 A2995 RMK A01 T03450204  RH  044%=      5-min Rain = 0
KCH1 181948Z 17014KT 35/20 A2995 RMK A01 T03470204  RH  043%=      5-min Rain = 0
KCH1 181949Z 16013KT 35/20 A2995 RMK A01 T03470204  RH  043%=      5-min Rain = 0
KCH1 181950Z 18010G15KT 35/21 A2995 RMK A01 T03470206  RH  044%=      5-min Rain = 0
KCH1 181951Z 18007KT 35/21 A2995 RMK A01 T03500208  RH  044%=      5-min Rain = 0
KCH1 181952Z 18010G15KT 36/21 A2995 RMK A01 T03550210  RH  043%=      5-min Rain = 0
KCH1 181953Z 18011G16KT 36/21 A2995 RMK A01 T03560206  RH  042%=      5-min Rain = 0
KCH1 181954Z 17015KT 35/21 A2994 RMK A01 T03540205  RH  042%=      5-min Rain = 0
KCH1 181955Z 16013KT 35/20 A2995 RMK A01 T03520204  RH  042%=      5-min Rain = 0
KCH1 181956Z 18008KT 35/21 A2995 RMK A01 T03500206  RH  043%=      5-min Rain = 0
KCH1 181957Z 20010KT 35/21 A2995 RMK A01 T03520206  RH  043%=      5-min Rain = 0
KCH1 181958Z 20011KT 35/21 A2994 RMK A01 T03520206  RH  042%=      5-min Rain = 0
KCH1 181959Z 21010KT 35/21 A2994 RMK A01 T03520205  RH  043%=      5-min Rain = 0
KCH1 182000Z 19011KT 35/21 A2994 RMK A01 T03510205  RH  043%=      5-min Rain = 0
KCH1 182001Z 20010G15KT 35/20 A2994 RMK A01 T03520204  RH  042%=      5-min Rain = 0
KCH1 182002Z 22011KT 35/20 A2994 RMK A01 T03520201  RH  041%=      5-min Rain = 0
KCH1 182003Z 21012G18KT 35/20 A2994 RMK A01 T03500203  RH  042%=      5-min Rain = 0
KCH1 182004Z 18010KT 35/21 A2994 RMK A01 T03510206  RH  043%=      5-min Rain = 0
KCH1 182005Z 18012KT 35/20 A2994 RMK A01 T03540201  RH  041%=      5-min Rain = 0
KCH1 182006Z 17013KT 36/20 A2994 RMK A01 T03550201  RH  041%=      5-min Rain = 0
KCH1 182007Z 16012G17KT 35/20 A2994 RMK A01 T03540202  RH  041%=      5-min Rain = 0
KCH1 182008Z 18009KT 35/20 A2994 RMK A01 T03540204  RH  042%=      5-min Rain = 0
KCH1 182009Z 19011G16KT 36/20 A2994 RMK A01 T03550204  RH  041%=      5-min Rain = 0
KCH1 182010Z 18012KT 35/20 A2994 RMK A01 T03540203  RH  041%=      5-min Rain = 0
KCH1 182011Z 18017KT 35/20 A2994 RMK A01 T03520204  RH  042%=      5-min Rain = 0
KCH1 182012Z 18012G17KT 35/20 A2994 RMK A01 T03520202  RH  041%=      5-min Rain = 0
KCH1 182013Z 17012KT 35/20 A2994 RMK A01 T03530203  RH  042%=      5-min Rain = 0
KCH1 182014Z 17011KT 36/20 A2994 RMK A01 T03550201  RH  041%=      5-min Rain = 0
KCH1 182015Z 19012KT 35/20 A2994 RMK A01 T03540202  RH  041%=      5-min Rain = 0
KCH1 182016Z 18011KT 35/20 A2994 RMK A01 T03540199  RH  041%=      5-min Rain = 0
KCH1 182017Z 17011KT 35/20 A2994 RMK A01 T03520200  RH  041%=      5-min Rain = 0
KCH1 182018Z 17013KT 35/20 A2993 RMK A01 T03530199  RH  040%=      5-min Rain = 0
KCH1 182019Z 17011KT 35/20 A2993 RMK A01 T03540199  RH  040%=      5-min Rain = 0
KCH1 182020Z 17012KT 36/20 A2993 RMK A01 T03550201  RH  041%=      5-min Rain = 0
KCH1 182021Z 16011KT 36/20 A2993 RMK A01 T03580202  RH  040%=      5-min Rain = 0
KCH1 182022Z 19010KT 36/20 A2993 RMK A01 T03590201  RH  040%=      5-min Rain = 0
KCH1 182023Z 21011KT 36/20 A2993 RMK A01 T03580202  RH  040%=      5-min Rain = 0
KCH1 182024Z 21013KT 36/20 A2993 RMK A01 T03560202  RH  041%=      5-min Rain = 0
KCH1 182025Z 21017G22KT 35/20 A2993 RMK A01 T03540201  RH  041%=      5-min Rain = 0
KCH1 182026Z 21013KT 35/20 A2993 RMK A01 T03530198  RH  040%=      5-min Rain = 0
KCH1 182027Z 20014G19KT 35/20 A2993 RMK A01 T03520198  RH  041%=      5-min Rain = 0
KCH1 182028Z 20013G19KT 35/20 A2993 RMK A01 T03520198  RH  041%=      5-min Rain = 0
KCH1 182029Z 19016KT 35/20 A2993 RMK A01 T03520198  RH  041%=      5-min Rain = 0
KCH1 182030Z 20011KT 35/20 A2993 RMK A01 T03520197  RH  040%=      5-min Rain = 0
KCH1 182031Z 20010KT 35/20 A2993 RMK A01 T03530200  RH  041%=      5-min Rain = 0
KCH1 182032Z 20013G18KT 35/20 A2993 RMK A01 T03540198  RH  040%=      5-min Rain = 0
KCH1 182033Z 20012KT 36/20 A2993 RMK A01 T03550196  RH  039%=      5-min Rain = 0
KCH1 182034Z 20012G18KT 36/20 A2993 RMK A01 T03560197  RH  039%=      5-min Rain = 0
KCH1 182035Z 20014KT 36/19 A2993 RMK A01 T03580194  RH  038%=      5-min Rain = 0
KCH1 182036Z 20013KT 36/19 A2993 RMK A01 T03560192  RH  038%=      5-min Rain = 0
KCH1 182037Z 20011G16KT 35/19 A2993 RMK A01 T03540194  RH  039%=      5-min Rain = 0
KCH1 182038Z 20010KT 35/20 A2993 RMK A01 T03540196  RH  040%=      5-min Rain = 0
KCH1 182039Z 18010KT 36/20 A2993 RMK A01 T03580201  RH  040%=      5-min Rain = 0
KCH1 182040Z 17012G17KT 36/20 A2993 RMK A01 T03610199  RH  039%=      5-min Rain = 0
KCH1 182041Z 20011KT 36/20 A2993 RMK A01 T03620201  RH  039%=      5-min Rain = 0
KCH1 182042Z 19009KT 36/20 A2993 RMK A01 T03610202  RH  039%=      5-min Rain = 0
KCH1 182043Z 18011KT 36/20 A2993 RMK A01 T03620203  RH  040%=      5-min Rain = 0
KCH1 182044Z 20011KT 36/20 A2993 RMK A01 T03630198  RH  038%=      5-min Rain = 0
KCH1 182045Z 20011KT 36/20 A2993 RMK A01 T03600195  RH  038%=      5-min Rain = 0
KCH1 182046Z 19011KT 36/19 A2993 RMK A01 T03560194  RH  039%=      5-min Rain = 0
KCH1 182047Z 20007G12KT 36/20 A2993 RMK A01 T03550195  RH  039%=      5-min Rain = 0
KCH1 182048Z 18006KT 36/20 A2993 RMK A01 T03550197  RH  040%=      5-min Rain = 0
KCH1 182049Z 18007KT 36/20 A2993 RMK A01 T03580199  RH  040%=      5-min Rain = 0
KCH1 182050Z 21009G14KT 36/20 A2992 RMK A01 T03600198  RH  039%=      5-min Rain = 0
KCH1 182051Z 19007G12KT 36/20 A2992 RMK A01 T03590198  RH  039%=      5-min Rain = 0
KCH1 182052Z 20013G18KT 36/20 A2992 RMK A01 T03590200  RH  039%=      5-min Rain = 0
KCH1 182053Z 20012G17KT 36/20 A2992 RMK A01 T03590200  RH  039%=      5-min Rain = 0
KCH1 182054Z 21012G17KT 36/20 A2992 RMK A01 T03590199  RH  039%=      5-min Rain = 0
KCH1 182055Z 21009KT 36/20 A2992 RMK A01 T03580200  RH  040%=      5-min Rain = 0
KCH1 182056Z 20008KT 36/20 A2992 RMK A01 T03590199  RH  039%=      5-min Rain = 0
KCH1 182057Z 19009KT 36/20 A2992 RMK A01 T03600202  RH  040%=      5-min Rain = 0
KCH1 182058Z 18007KT 36/20 A2992 RMK A01 T03620204  RH  040%=      5-min Rain = 0
KCH1 182059Z 19011G16KT 37/20 A2992 RMK A01 T03650204  RH  039%=      5-min Rain = 0
KCH1 182100Z 19015KT 37/20 A2992 RMK A01 T03650199  RH  038%=      5-min Rain = 0
KCH1 182101Z 19013KT 36/20 A2992 RMK A01 T03600198  RH  039%=      5-min Rain = 0
KCH1 182102Z 20009KT 36/20 A2992 RMK A01 T03590200  RH  040%=      5-min Rain = 0
KCH1 182103Z 20009KT 36/20 A2992 RMK A01 T03610202  RH  040%=      5-min Rain = 0
KCH1 182104Z 21009G14KT 36/20 A2992 RMK A01 T03640202  RH  039%=      5-min Rain = 0
KCH1 182105Z 21013G18KT 36/20 A2992 RMK A01 T03640197  RH  038%=      5-min Rain = 0
KCH1 182106Z 20007KT 36/20 A2992 RMK A01 T03610198  RH  038%=      5-min Rain = 0
KCH1 182107Z 20014G19KT 36/20 A2992 RMK A01 T03600197  RH  039%=      5-min Rain = 0
KCH1 182108Z 21011KT 36/20 A2992 RMK A01 T03590198  RH  039%=      5-min Rain = 0
KCH1 182109Z 21012G19KT 36/20 A2992 RMK A01 T03580197  RH  039%=      5-min Rain = 0
KCH1 182110Z 20013KT 36/20 A2992 RMK A01 T03580197  RH  039%=      5-min Rain = 0
KCH1 182111Z 19015G20KT 36/20 A2992 RMK A01 T03580196  RH  039%=      5-min Rain = 0
KCH1 182112Z 19012KT 36/20 A2992 RMK A01 T03570196  RH  039%=      5-min Rain = 0
KCH1 182113Z 20010KT 36/20 A2992 RMK A01 T03580197  RH  039%=      5-min Rain = 0
KCH1 182114Z 20013KT 36/20 A2991 RMK A01 T03590196  RH  039%=      5-min Rain = 0
KCH1 182115Z 18012KT 36/20 A2991 RMK A01 T03590197  RH  039%=      5-min Rain = 0
KCH1 182116Z 20007KT 36/20 A2991 RMK A01 T03600199  RH  039%=      5-min Rain = 0
KCH1 182117Z 20011KT 36/20 A2991 RMK A01 T03610196  RH  038%=      5-min Rain = 0
KCH1 182118Z 19009KT 36/20 A2991 RMK A01 T03610196  RH  038%=      5-min Rain = 0
KCH1 182119Z 19011KT 36/20 A2991 RMK A01 T03610197  RH  038%=      5-min Rain = 0
KCH1 182120Z 18010KT 36/20 A2991 RMK A01 T03620195  RH  038%=      5-min Rain = 0
KCH1 182121Z 17010G15KT 36/20 A2991 RMK A01 T03620197  RH  038%=      5-min Rain = 0
KCH1 182122Z 18010KT 36/20 A2991 RMK A01 T03630197  RH  038%=      5-min Rain = 0
KCH1 182123Z 20008KT 36/20 A2991 RMK A01 T03640200  RH  038%=      5-min Rain = 0
KCH1 182124Z 20013KT 37/20 A2991 RMK A01 T03660199  RH  038%=      5-min Rain = 0
KCH1 182125Z 18013KT 37/20 A2991 RMK A01 T03650198  RH  038%=      5-min Rain = 0
KCH1 182126Z 18011KT 36/20 A2991 RMK A01 T03620197  RH  038%=      5-min Rain = 0
KCH1 182127Z 18012KT 36/20 A2991 RMK A01 T03610196  RH  038%=      5-min Rain = 0
KCH1 182128Z 16012KT 36/20 A2991 RMK A01 T03610196  RH  038%=      5-min Rain = 0
KCH1 182129Z 18013KT 36/20 A2991 RMK A01 T03610195  RH  038%=      5-min Rain = 0
KCH1 182130Z 17012KT 36/20 A2991 RMK A01 T03610195  RH  038%=      5-min Rain = 0
KCH1 182131Z 18015G21KT 36/19 A2991 RMK A01 T03610194  RH  038%=      5-min Rain = 0
KCH1 182132Z 18014G19KT 36/19 A2991 RMK A01 T03610193  RH  037%=      5-min Rain = 0
KCH1 182133Z 16016KT 36/19 A2991 RMK A01 T03610192  RH  037%=      5-min Rain = 0
KCH1 182134Z 16013KT 36/19 A2991 RMK A01 T03610192  RH  037%=      5-min Rain = 0
KCH1 182135Z 16013KT 36/19 A2991 RMK A01 T03610191  RH  037%=      5-min Rain = 0
KCH1 182136Z 17009KT 36/19 A2991 RMK A01 T03620192  RH  037%=      5-min Rain = 0
KCH1 182137Z 18009KT 36/19 A2991 RMK A01 T03620192  RH  037%=      5-min Rain = 0
KCH1 182138Z 19008KT 36/20 A2991 RMK A01 T03630195  RH  038%=      5-min Rain = 0
KCH1 182139Z 20007KT 37/20 A2991 RMK A01 T03650195  RH  037%=      5-min Rain = 0
KCH1 182140Z 21010KT 37/19 A2991 RMK A01 T03660194  RH  037%=      5-min Rain = 0
KCH1 182141Z 21011KT 36/19 A2991 RMK A01 T03640193  RH  037%=      5-min Rain = 0
KCH1 182142Z 21010KT 36/20 A299 RMK A01 T03620195  RH  038%=      5-min Rain = 0
KCH1 182143Z 20010KT 36/20 A2991 RMK A01 T03630197  RH  038%=      5-min Rain = 0
KCH1 182144Z 19010KT 36/20 A2991 RMK A01 T03640197  RH  038%=      5-min Rain = 0
KCH1 182145Z 18011KT 36/20 A2991 RMK A01 T03640198  RH  038%=      5-min Rain = 0
KCH1 182146Z 18014KT 36/19 A299 RMK A01 T03640194  RH  037%=      5-min Rain = 0
KCH1 182147Z 19013KT 36/19 A2991 RMK A01 T03630192  RH  037%=      5-min Rain = 0
KCH1 182148Z 19009G15KT 36/19 A2991 RMK A01 T03620193  RH  037%=      5-min Rain = 0
KCH1 182149Z 21009G14KT 36/20 A2991 RMK A01 T03640195  RH  037%=      5-min Rain = 0
KCH1 182150Z 20010KT 37/19 A2991 RMK A01 T03660194  RH  037%=      5-min Rain = 0
KCH1 182151Z 19011KT 37/19 A299 RMK A01 T03660194  RH  037%=      5-min Rain = 0
KCH1 182152Z 21010KT 37/20 A299 RMK A01 T03650197  RH  037%=      5-min Rain = 0
KCH1 182153Z 20010KT 36/20 A299 RMK A01 T03630197  RH  038%=      5-min Rain = 0
KCH1 182154Z 18012KT 36/20 A299 RMK A01 T03630199  RH  038%=      5-min Rain = 0
KCH1 182155Z 17009KT 36/20 A299 RMK A01 T03640199  RH  038%=      5-min Rain = 0
KCH1 182156Z 16012G19KT 37/20 A299 RMK A01 T03650199  RH  038%=      5-min Rain = 0
KCH1 182157Z 17014G19KT 37/20 A299 RMK A01 T03660198  RH  038%=      5-min Rain = 0
KCH1 182158Z 17014KT 36/20 A299 RMK A01 T03640195  RH  037%=      5-min Rain = 0
KCH1 182159Z 18011KT 36/20 A299 RMK A01 T03620197  RH  038%=      5-min Rain = 0
KCH1 182200Z 19010KT 36/20 A299 RMK A01 T03630197  RH  038%=      5-min Rain = 0
KCH1 182201Z 19014G19KT 36/20 A299 RMK A01 T03640195  RH  037%=      5-min Rain = 0
KCH1 182202Z 19015G21KT 36/19 A299 RMK A01 T03630193  RH  037%=      5-min Rain = 0
KCH1 182203Z 18015KT 36/19 A299 RMK A01 T03620194  RH  037%=      5-min Rain = 0
KCH1 182204Z 20012G18KT 36/20 A299 RMK A01 T03630195  RH  038%=      5-min Rain = 0
KCH1 182205Z 20013KT 36/19 A299 RMK A01 T03640193  RH  037%=      5-min Rain = 0
KCH1 182206Z 18010KT 36/20 A299 RMK A01 T03640195  RH  037%=      5-min Rain = 0
KCH1 182207Z 18009G14KT 36/20 A299 RMK A01 T03640197  RH  038%=      5-min Rain = 0
KCH1 182208Z 17011KT 37/20 A299 RMK A01 T03650197  RH  037%=      5-min Rain = 0
KCH1 182209Z 16015KT 36/20 A299 RMK A01 T03640196  RH  037%=      5-min Rain = 0
KCH1 182210Z 17009KT 36/20 A299 RMK A01 T03630196  RH  038%=      5-min Rain = 0
KCH1 182211Z 16011KT 37/20 A299 RMK A01 T03650195  RH  037%=      5-min Rain = 0
KCH1 182212Z 16012G19KT 36/20 A2989 RMK A01 T03640197  RH  038%=      5-min Rain = 0
KCH1 182213Z 18015KT 37/20 A299 RMK A01 T03650198  RH  038%=      5-min Rain = 0
KCH1 182214Z 18016KT 37/20 A299 RMK A01 T03650196  RH  037%=      5-min Rain = 0
KCH1 182215Z 17011KT 36/20 A299 RMK A01 T03630197  RH  038%=      5-min Rain = 0
KCH1 182216Z 16013G18KT 36/20 A299 RMK A01 T03620196  RH  038%=      5-min Rain = 0
KCH1 182217Z 15013KT 36/20 A299 RMK A01 T03620196  RH  038%=      5-min Rain = 0
KCH1 182218Z 15014KT 36/20 A299 RMK A01 T03620196  RH  038%=      5-min Rain = 0
KCH1 182219Z 16010KT 36/20 A299 RMK A01 T03620197  RH  038%=      5-min Rain = 0
KCH1 182220Z 17009KT 36/20 A299 RMK A01 T03630200  RH  039%=      5-min Rain = 0
KCH1 182221Z 15010KT 37/20 A299 RMK A01 T03660201  RH  038%=      5-min Rain = 0
KCH1 182222Z 16013KT 37/20 A2989 RMK A01 T03680199  RH  037%=      5-min Rain = 0
KCH1 182223Z 17017G22KT 37/20 A2989 RMK A01 T03670198  RH  037%=      5-min Rain = 0
KCH1 182224Z 17017KT 37/20 A2989 RMK A01 T03650197  RH  038%=      5-min Rain = 0
KCH1 182225Z 17014KT 36/20 A2989 RMK A01 T03610195  RH  038%=      5-min Rain = 0
KCH1 182226Z 17009KT 36/20 A2989 RMK A01 T03600198  RH  039%=      5-min Rain = 0
KCH1 182227Z 17014G19KT 36/20 A2989 RMK A01 T03610198  RH  039%=      5-min Rain = 0
KCH1 182228Z 17016G21KT 36/20 A2989 RMK A01 T03620195  RH  038%=      5-min Rain = 0
KCH1 182229Z 17015KT 36/19 A2989 RMK A01 T03610192  RH  037%=      5-min Rain = 0
KCH1 182230Z 17012KT 36/19 A2989 RMK A01 T03590192  RH  038%=      5-min Rain = 0
KCH1 182231Z 17012KT 36/19 A2989 RMK A01 T03590191  RH  037%=      5-min Rain = 0
KCH1 182232Z 16012KT 36/19 A2989 RMK A01 T03600191  RH  037%=      5-min Rain = 0
KCH1 182233Z 18008KT 36/19 A2989 RMK A01 T03620192  RH  037%=      5-min Rain = 0
KCH1 182234Z 20009KT 36/20 A2989 RMK A01 T03630197  RH  038%=      5-min Rain = 0
KCH1 182235Z 19010KT 36/20 A2989 RMK A01 T03640196  RH  037%=      5-min Rain = 0
KCH1 182236Z 20013KT 36/20 A2989 RMK A01 T03630196  RH  038%=      5-min Rain = 0
KCH1 182237Z 18012KT 36/20 A2989 RMK A01 T03630196  RH  038%=      5-min Rain = 0
KCH1 182238Z 17014KT 36/20 A2989 RMK A01 T03620196  RH  038%=      5-min Rain = 0
KCH1 182239Z 17013KT 36/20 A2989 RMK A01 T03610195  RH  038%=      5-min Rain = 0
KCH1 182240Z 19011KT 36/20 A2989 RMK A01 T03590196  RH  039%=      5-min Rain = 0
KCH1 182241Z 19010KT 36/20 A2989 RMK A01 T03570195  RH  039%=      5-min Rain = 0
KCH1 182242Z 18011G16KT 35/19 A2989 RMK A01 T03540194  RH  039%=      5-min Rain = 0
KCH1 182243Z 18013KT 35/19 A2989 RMK A01 T03530194  RH  039%=      5-min Rain = 0
KCH1 182244Z 20008KT 35/20 A2989 RMK A01 T03540195  RH  039%=      5-min Rain = 0
KCH1 182245Z 20011KT 36/20 A2989 RMK A01 T03580195  RH  039%=      5-min Rain = 0
KCH1 182246Z 19012KT 36/19 A2989 RMK A01 T03590194  RH  038%=      5-min Rain = 0
KCH1 182247Z 18008KT 36/20 A2989 RMK A01 T03600196  RH  038%=      5-min Rain = 0
KCH1 182248Z 18013KT 36/19 A2988 RMK A01 T03610194  RH  038%=      5-min Rain = 0
KCH1 182249Z 19009KT 36/19 A2988 RMK A01 T03610193  RH  037%=      5-min Rain = 0
KCH1 182250Z 20011G16KT 36/19 A2988 RMK A01 T03600192  RH  037%=      5-min Rain = 0
KCH1 182251Z 20010KT 36/19 A2988 RMK A01 T03600193  RH  038%=      5-min Rain = 0
KCH1 182252Z 19012KT 36/19 A2988 RMK A01 T03600192  RH  037%=      5-min Rain = 0
KCH1 182253Z 18012KT 36/19 A2988 RMK A01 T03600193  RH  038%=      5-min Rain = 0
KCH1 182254Z 19012KT 36/19 A2988 RMK A01 T03600193  RH  038%=      5-min Rain = 0
KCH1 182255Z 19013KT 36/19 A2988 RMK A01 T03600192  RH  037%=      5-min Rain = 0
KCH1 182256Z 19009KT 36/19 A2988 RMK A01 T03590192  RH  038%=      5-min Rain = 0
KCH1 182257Z 19006KT 36/19 A2988 RMK A01 T03580192  RH  038%=      5-min Rain = 0
KCH1 182258Z 19006KT 36/20 A2988 RMK A01 T03590197  RH  039%=      5-min Rain = 0
KCH1 182259Z 18011KT 36/20 A2988 RMK A01 T03630198  RH  038%=      5-min Rain = 0
KCH1 182300Z 19013KT 36/19 A2988 RMK A01 T03640194  RH  037%=      5-min Rain = 0
KCH1 182301Z 19012KT 36/19 A2988 RMK A01 T03610194  RH  038%=      5-min Rain = 0
KCH1 182302Z 18011KT 36/19 A2988 RMK A01 T03600193  RH  038%=      5-min Rain = 0
KCH1 182303Z 18012KT 36/19 A2988 RMK A01 T03590193  RH  038%=      5-min Rain = 0
KCH1 182304Z 19013KT 36/19 A2988 RMK A01 T03590193  RH  038%=      5-min Rain = 0
KCH1 182305Z 18012G17KT 36/19 A2988 RMK A01 T03590193  RH  038%=      5-min Rain = 0
KCH1 182306Z 18014KT 36/19 A2988 RMK A01 T03590193  RH  038%=      5-min Rain = 0
KCH1 182307Z 17015G20KT 36/19 A2988 RMK A01 T03580193  RH  038%=      5-min Rain = 0
KCH1 182308Z 19014KT 36/19 A2988 RMK A01 T03570193  RH  038%=      5-min Rain = 0
KCH1 182309Z 18015KT 36/19 A2988 RMK A01 T03570193  RH  038%=      5-min Rain = 0
KCH1 182310Z 17013KT 36/19 A2988 RMK A01 T03560193  RH  039%=      5-min Rain = 0
KCH1 182311Z 16013KT 36/19 A2988 RMK A01 T03560194  RH  039%=      5-min Rain = 0
KCH1 182312Z 17013KT 36/19 A2988 RMK A01 T03560194  RH  039%=      5-min Rain = 0
KCH1 182313Z 18014G19KT 36/20 A2988 RMK A01 T03580195  RH  039%=      5-min Rain = 0
KCH1 182314Z 17014G19KT 36/19 A2988 RMK A01 T03590192  RH  038%=      5-min Rain = 0
KCH1 182315Z 20010KT 36/19 A2988 RMK A01 T03570193  RH  038%=      5-min Rain = 0
KCH1 182316Z 21010G18KT 36/19 A2988 RMK A01 T03570193  RH  038%=      5-min Rain = 0
KCH1 182317Z 20012G17KT 36/19 A2987 RMK A01 T03570193  RH  038%=      5-min Rain = 0
KCH1 182318Z 19012KT 36/19 A2987 RMK A01 T03570193  RH  038%=      5-min Rain = 0
KCH1 182319Z 19012KT 36/19 A2987 RMK A01 T03570193  RH  038%=      5-min Rain = 0
KCH1 182320Z 18015G21KT 36/19 A2987 RMK A01 T03570193  RH  038%=      5-min Rain = 0
KCH1 182321Z 19013KT 36/19 A2987 RMK A01 T03570192  RH  038%=      5-min Rain = 0
KCH1 182322Z 17011KT 36/19 A2987 RMK A01 T03560193  RH  038%=      5-min Rain = 0
KCH1 182323Z 17015KT 36/19 A2987 RMK A01 T03560191  RH  038%=      5-min Rain = 0
KCH1 182324Z 16012KT 36/19 A2987 RMK A01 T03560193  RH  038%=      5-min Rain = 0
KCH1 182325Z 17010KT 36/19 A2987 RMK A01 T03560192  RH  038%=      5-min Rain = 0
KCH1 182326Z 17013KT 36/19 A2987 RMK A01 T03570192  RH  038%=      5-min Rain = 0
KCH1 182327Z 17011KT 36/19 A2987 RMK A01 T03570192  RH  038%=      5-min Rain = 0
KCH1 182328Z 18011KT 36/19 A2987 RMK A01 T03570191  RH  038%=      5-min Rain = 0
KCH1 182329Z 18009KT 36/19 A2987 RMK A01 T03560192  RH  038%=      5-min Rain = 0
KCH1 182330Z 18010KT 36/19 A2987 RMK A01 T03560192  RH  038%=      5-min Rain = 0
KCH1 182331Z 16008KT 36/19 A2987 RMK A01 T03560194  RH  039%=      5-min Rain = 0
KCH1 182332Z 15010KT 36/19 A2987 RMK A01 T03580194  RH  038%=      5-min Rain = 0
KCH1 182333Z 17012KT 36/19 A2987 RMK A01 T03590193  RH  038%=      5-min Rain = 0
KCH1 182334Z 17012KT 36/19 A2987 RMK A01 T03580193  RH  038%=      5-min Rain = 0
KCH1 182335Z 15009KT 36/19 A2987 RMK A01 T03560193  RH  038%=      5-min Rain = 0
KCH1 182336Z 17009G14KT 36/19 A2987 RMK A01 T03560193  RH  038%=      5-min Rain = 0
KCH1 182337Z 16014KT 36/19 A2987 RMK A01 T03560191  RH  038%=      5-min Rain = 0
KCH1 182338Z 17012KT 36/19 A2987 RMK A01 T03560190  RH  038%=      5-min Rain = 0
KCH1 182339Z 16013KT 36/19 A2987 RMK A01 T03560191  RH  038%=      5-min Rain = 0
KCH1 182340Z 16015KT 36/19 A2987 RMK A01 T03560190  RH  038%=      5-min Rain = 0
KCH1 182341Z 17014KT 36/19 A2987 RMK A01 T03550189  RH  038%=      5-min Rain = 0
KCH1 182342Z 17013KT 36/19 A2987 RMK A01 T03550190  RH  038%=      5-min Rain = 0
KCH1 182343Z 17009KT 36/19 A2987 RMK A01 T03550192  RH  038%=      5-min Rain = 0
KCH1 182344Z 17012G19KT 36/19 A2987 RMK A01 T03550191  RH  038%=      5-min Rain = 0
KCH1 182345Z 17014KT 36/19 A2987 RMK A01 T03550190  RH  038%=      5-min Rain = 0
KCH1 182346Z 16013KT 36/19 A2987 RMK A01 T03550190  RH  038%=      5-min Rain = 0
KCH1 182347Z 16013G18KT 35/19 A2987 RMK A01 T03540190  RH  038%=      5-min Rain = 0
KCH1 182348Z 16014KT 35/19 A2987 RMK A01 T03540189  RH  038%=      5-min Rain = 0
KCH1 182349Z 17012KT 35/19 A2987 RMK A01 T03530190  RH  038%=      5-min Rain = 0
KCH1 182350Z 17013KT 35/19 A2987 RMK A01 T03530189  RH  038%=      5-min Rain = 0
KCH1 182351Z 17011KT 35/19 A2987 RMK A01 T03530190  RH  039%=      5-min Rain = 0
KCH1 182352Z 17011KT 35/19 A2987 RMK A01 T03530190  RH  038%=      5-min Rain = 0
KCH1 182353Z 17011KT 35/19 A2987 RMK A01 T03530189  RH  038%=      5-min Rain = 0
KCH1 182354Z 16012KT 35/19 A2987 RMK A01 T03530189  RH  038%=      5-min Rain = 0
KCH1 182355Z 16012KT 35/19 A2987 RMK A01 T03530188  RH  038%=      5-min Rain = 0
KCH1 182356Z 17013KT 35/19 A2987 RMK A01 T03530188  RH  038%=      5-min Rain = 0
KCH1 182357Z 16012KT 35/19 A2987 RMK A01 T03530189  RH  038%=      5-min Rain = 0
KCH1 182358Z 17013KT 35/19 A2987 RMK A01 T03520188  RH  038%=      5-min Rain = 0
KCH1 182359Z 17011KT 35/19 A2988 RMK A01 T03520188  RH  038%=      5-min Rain = 0
KCH1 190000Z 17010KT 35/19 A2988 RMK A01 T03520189  RH  038%=      5-min Rain = 0
KCH1 190001Z 17013KT 35/19 A2988 RMK A01 T03520189  RH  038%=      5-min Rain = 0
KCH1 190002Z 17015KT 35/19 A2988 RMK A01 T03520189  RH  038%=      5-min Rain = 0
KCH1 190003Z 17012KT 35/19 A2988 RMK A01 T03510189  RH  038%=      5-min Rain = 0
KCH1 190004Z 17012KT 35/19 A2988 RMK A01 T03510189  RH  039%=      5-min Rain = 0
KCH1 190005Z 16011KT 35/19 A2988 RMK A01 T03510190  RH  039%=      5-min Rain = 0
KCH1 190006Z 15011KT 35/19 A2988 RMK A01 T03500189  RH  039%=      5-min Rain = 0
KCH1 190007Z 16010KT 35/19 A2988 RMK A01 T03500190  RH  039%=      5-min Rain = 0
KCH1 190008Z 16011KT 35/19 A2988 RMK A01 T03510190  RH  039%=      5-min Rain = 0
KCH1 190009Z 15012KT 35/19 A2988 RMK A01 T03510190  RH  039%=      5-min Rain = 0
KCH1 190010Z 16011KT 35/19 A2988 RMK A01 T03510189  RH  039%=      5-min Rain = 0
KCH1 190011Z 17009KT 35/19 A2988 RMK A01 T03510191  RH  039%=      5-min Rain = 0
KCH1 190012Z 18012KT 35/19 A2988 RMK A01 T03510191  RH  039%=      5-min Rain = 0
KCH1 190013Z 18011KT 35/19 A2988 RMK A01 T03510191  RH  039%=      5-min Rain = 0
KCH1 190014Z 17011KT 35/19 A2988 RMK A01 T03500191  RH  039%=      5-min Rain = 0
KCH1 190015Z 17010KT 35/19 A2988 RMK A01 T03500191  RH  039%=      5-min Rain = 0
KCH1 190016Z 16007KT 35/19 A2988 RMK A01 T03500193  RH  040%=      5-min Rain = 0
KCH1 190017Z 18009KT 35/19 A2988 RMK A01 T03500191  RH  039%=      5-min Rain = 0
KCH1 190018Z 18012KT 35/19 A2988 RMK A01 T03500188  RH  039%=      5-min Rain = 0
KCH1 190019Z 17009KT 35/19 A2988 RMK A01 T03500188  RH  039%=      5-min Rain = 0
KCH1 190020Z 19013KT 35/19 A2988 RMK A01 T03490189  RH  039%=      5-min Rain = 0
KCH1 190021Z 18011KT 35/19 A2988 RMK A01 T03490189  RH  039%=      5-min Rain = 0
KCH1 190022Z 17008KT 35/19 A2988 RMK A01 T03490190  RH  039%=      5-min Rain = 0
KCH1 190023Z 16009KT 35/19 A2988 RMK A01 T03490191  RH  040%=      5-min Rain = 0
KCH1 190024Z 16008KT 35/19 A2988 RMK A01 T03490189  RH  039%=      5-min Rain = 0
KCH1 190025Z 17010KT 35/19 A2988 RMK A01 T03490191  RH  039%=      5-min Rain = 0
KCH1 190026Z 17013KT 35/19 A2988 RMK A01 T03490190  RH  039%=      5-min Rain = 0
KCH1 190027Z 16013KT 35/19 A2988 RMK A01 T03480189  RH  039%=      5-min Rain = 0
KCH1 190028Z 17011KT 35/19 A2988 RMK A01 T03480189  RH  039%=      5-min Rain = 0
KCH1 190029Z 17011G16KT 35/19 A2988 RMK A01 T03470190  RH  040%=      5-min Rain = 0
KCH1 190030Z 17012KT 35/19 A2988 RMK A01 T03470190  RH  040%=      5-min Rain = 0
KCH1 190031Z 17014KT 35/19 A2988 RMK A01 T03470188  RH  039%=      5-min Rain = 0
KCH1 190032Z 17010KT 35/19 A2988 RMK A01 T03460189  RH  039%=      5-min Rain = 0
KCH1 190033Z 17008KT 35/19 A2988 RMK A01 T03460189  RH  040%=      5-min Rain = 0
KCH1 190034Z 17009KT 35/19 A2988 RMK A01 T03460190  RH  040%=      5-min Rain = 0
KCH1 190035Z 17007KT 35/19 A2988 RMK A01 T03460190  RH  040%=      5-min Rain = 0
KCH1 190036Z 17008KT 35/19 A2988 RMK A01 T03460192  RH  040%=      5-min Rain = 0
KCH1 190037Z 17010KT 35/19 A2988 RMK A01 T03450190  RH  040%=      5-min Rain = 0
KCH1 190038Z 16009KT 35/19 A2988 RMK A01 T03450190  RH  040%=      5-min Rain = 0
KCH1 190039Z 17012KT 35/19 A2988 RMK A01 T03450190  RH  040%=      5-min Rain = 0
KCH1 190040Z 16010KT 34/19 A2988 RMK A01 T03440190  RH  040%=      5-min Rain = 0
KCH1 190041Z 17011KT 34/19 A2988 RMK A01 T03440190  RH  040%=      5-min Rain = 0
KCH1 190042Z 16010G15KT 34/19 A2988 RMK A01 T03440189  RH  040%=      5-min Rain = 0
KCH1 190043Z 17010KT 34/19 A2988 RMK A01 T03430189  RH  040%=      5-min Rain = 0
KCH1 190044Z 16011KT 34/19 A2988 RMK A01 T03430188  RH  040%=      5-min Rain = 0
KCH1 190045Z 16011KT 34/19 A2988 RMK A01 T03420186  RH  040%=      5-min Rain = 0
KCH1 190046Z 16010KT 34/19 A2988 RMK A01 T03420186  RH  040%=      5-min Rain = 0
KCH1 190047Z 17012G17KT 34/19 A2988 RMK A01 T03420185  RH  039%=      5-min Rain = 0
KCH1 190048Z 17011KT 34/19 A2988 RMK A01 T03420185  RH  039%=      5-min Rain = 0
KCH1 190049Z 16010KT 34/19 A2989 RMK A01 T03420185  RH  040%=      5-min Rain = 0
KCH1 190050Z 16007KT 34/19 A2989 RMK A01 T03420186  RH  040%=      5-min Rain = 0
KCH1 190051Z 16007KT 34/19 A2989 RMK A01 T03410187  RH  040%=      5-min Rain = 0
KCH1 190052Z 16009KT 34/19 A2988 RMK A01 T03410186  RH  040%=      5-min Rain = 0
KCH1 190053Z 16007KT 34/19 A2988 RMK A01 T03410186  RH  040%=      5-min Rain = 0
KCH1 190054Z 16008KT 34/19 A2988 RMK A01 T03410186  RH  040%=      5-min Rain = 0
KCH1 190055Z 16008KT 34/19 A2989 RMK A01 T03400186  RH  040%=      5-min Rain = 0
KCH1 190056Z 16011KT 34/19 A2988 RMK A01 T03400185  RH  040%=      5-min Rain = 0
KCH1 190057Z 15011KT 34/18 A2988 RMK A01 T03400183  RH  039%=      5-min Rain = 0
KCH1 190058Z 16010KT 34/18 A2988 RMK A01 T03400184  RH  040%=      5-min Rain = 0
KCH1 190059Z 16010KT 34/18 A2988 RMK A01 T03400183  RH  040%=      5-min Rain = 0
KCH1 190100Z 17009KT 34/18 A2988 RMK A01 T03390183  RH  040%=      5-min Rain = 0
KCH1 190101Z 17008KT 34/18 A2988 RMK A01 T03390183  RH  040%=      5-min Rain = 0
KCH1 190102Z 17010KT 34/18 A2988 RMK A01 T03380183  RH  040%=      5-min Rain = 0
KCH1 190103Z 17008KT 34/18 A2988 RMK A01 T03380184  RH  040%=      5-min Rain = 0
KCH1 190104Z 17009KT 34/18 A2988 RMK A01 T03380184  RH  040%=      5-min Rain = 0
KCH1 190105Z 17010KT 34/18 A2988 RMK A01 T03370183  RH  040%=      5-min Rain = 0
KCH1 190106Z 16010G15KT 34/18 A2988 RMK A01 T03370182  RH  040%=      5-min Rain = 0
KCH1 190107Z 16008KT 34/18 A2989 RMK A01 T03370182  RH  040%=      5-min Rain = 0
KCH1 190108Z 17007KT 34/18 A2988 RMK A01 T03370183  RH  040%=      5-min Rain = 0
KCH1 190109Z 16008KT 34/18 A2989 RMK A01 T03360183  RH  040%=      5-min Rain = 0
KCH1 190110Z 16006KT 34/18 A2989 RMK A01 T03360184  RH  041%=      5-min Rain = 0
KCH1 190111Z 15006KT 34/18 A2989 RMK A01 T03350184  RH  041%=      5-min Rain = 0
KCH1 190112Z 16008KT 33/18 A2989 RMK A01 T03340184  RH  041%=      5-min Rain = 0
KCH1 190113Z 16007KT 33/18 A2988 RMK A01 T03340183  RH  041%=      5-min Rain = 0
KCH1 190114Z 17010KT 33/18 A2988 RMK A01 T03330182  RH  041%=      5-min Rain = 0
KCH1 190115Z 16010KT 33/18 A2988 RMK A01 T03330180  RH  040%=      5-min Rain = 0
KCH1 190116Z 16009KT 33/18 A2989 RMK A01 T03340180  RH  040%=      5-min Rain = 0
KCH1 190117Z 16009KT 33/18 A2989 RMK A01 T03340180  RH  040%=      5-min Rain = 0
KCH1 190118Z 17010KT 33/18 A2989 RMK A01 T03330180  RH  040%=      5-min Rain = 0
KCH1 190119Z 16008KT 33/18 A2989 RMK A01 T03330180  RH  040%=      5-min Rain = 0
KCH1 190120Z 17009KT 33/18 A2989 RMK A01 T03330180  RH  040%=      5-min Rain = 0
KCH1 190121Z 17008KT 33/18 A2989 RMK A01 T03320180  RH  041%=      5-min Rain = 0
KCH1 190122Z 16009KT 33/18 A2989 RMK A01 T03310179  RH  040%=      5-min Rain = 0
KCH1 190123Z 16006KT 33/18 A2989 RMK A01 T03320179  RH  040%=      5-min Rain = 0
KCH1 190124Z 16008KT 33/18 A2989 RMK A01 T03310179  RH  041%=      5-min Rain = 0
KCH1 190125Z 16010KT 33/18 A2989 RMK A01 T03310178  RH  040%=      5-min Rain = 0
KCH1 190126Z 16009KT 33/18 A2989 RMK A01 T03310178  RH  040%=      5-min Rain = 0
KCH1 190127Z 15007KT 33/18 A2989 RMK A01 T03300179  RH  041%=      5-min Rain = 0
KCH1 190128Z 16007KT 33/18 A2989 RMK A01 T03290179  RH  041%=      5-min Rain = 0
KCH1 190129Z 16008KT 33/18 A2989 RMK A01 T03280178  RH  041%=      5-min Rain = 0
KCH1 190130Z 16009KT 33/18 A2989 RMK A01 T03280177  RH  041%=      5-min Rain = 0
KCH1 190131Z 16008KT 33/18 A2989 RMK A01 T03290177  RH  040%=      5-min Rain = 0
KCH1 190132Z 16008KT 33/18 A2989 RMK A01 T03290177  RH  040%=      5-min Rain = 0
KCH1 190133Z 17010KT 33/18 A2989 RMK A01 T03280177  RH  041%=      5-min Rain = 0
KCH1 190134Z 16009KT 33/18 A2989 RMK A01 T03280176  RH  041%=      5-min Rain = 0
KCH1 190135Z 17008KT 33/18 A2989 RMK A01 T03270176  RH  041%=      5-min Rain = 0
KCH1 190136Z 16008KT 33/18 A2989 RMK A01 T03270176  RH  041%=      5-min Rain = 0
KCH1 190137Z 17009KT 33/18 A2989 RMK A01 T03260176  RH  041%=      5-min Rain = 0
KCH1 190138Z 16007KT 33/18 A2989 RMK A01 T03260176  RH  041%=      5-min Rain = 0
KCH1 190139Z 16006KT 33/18 A2989 RMK A01 T03260176  RH  041%=      5-min Rain = 0
KCH1 190140Z 17007KT 33/18 A2989 RMK A01 T03250176  RH  041%=      5-min Rain = 0
KCH1 190141Z 16008KT 32/18 A2989 RMK A01 T03240175  RH  041%=      5-min Rain = 0
KCH1 190142Z 16007G12KT 32/17 A2989 RMK A01 T03240174  RH  041%=      5-min Rain = 0
KCH1 190143Z 16006KT 32/18 A2989 RMK A01 T03240175  RH  041%=      5-min Rain = 0
KCH1 190144Z 16006KT 32/18 A2989 RMK A01 T03230175  RH  041%=      5-min Rain = 0
KCH1 190145Z 16005KT 32/18 A2989 RMK A01 T03220175  RH  041%=      5-min Rain = 0
KCH1 190146Z 16006KT 32/18 A2989 RMK A01 T03220175  RH  042%=      5-min Rain = 0
KCH1 190147Z 16009KT 32/17 A2989 RMK A01 T03210174  RH  041%=      5-min Rain = 0
KCH1 190148Z 16007KT 32/17 A2989 RMK A01 T03210174  RH  041%=      5-min Rain = 0
KCH1 190149Z 16008KT 32/17 A2989 RMK A01 T03210174  RH  041%=      5-min Rain = 0
KCH1 190150Z 16008KT 32/17 A2989 RMK A01 T03200173  RH  041%=      5-min Rain = 0
KCH1 190151Z 16007KT 32/17 A2989 RMK A01 T03200173  RH  042%=      5-min Rain = 0
KCH1 190152Z 16007KT 32/17 A2989 RMK A01 T03200173  RH  041%=      5-min Rain = 0
KCH1 190153Z 16007KT 32/17 A2989 RMK A01 T03190173  RH  042%=      5-min Rain = 0
KCH1 190154Z 16008KT 32/17 A2989 RMK A01 T03190172  RH  041%=      5-min Rain = 0
KCH1 190155Z 16006KT 32/17 A2989 RMK A01 T03190172  RH  041%=      5-min Rain = 0
KCH1 190156Z 16007KT 32/17 A2989 RMK A01 T03180172  RH  042%=      5-min Rain = 0
KCH1 190157Z 16008KT 32/17 A2989 RMK A01 T03180171  RH  041%=      5-min Rain = 0
KCH1 190158Z 16007KT 32/17 A2989 RMK A01 T03180171  RH  041%=      5-min Rain = 0
KCH1 190159Z 16007KT 32/17 A2989 RMK A01 T03180170  RH  041%=      5-min Rain = 0
KCH1 190200Z 16006KT 32/17 A2989 RMK A01 T03180170  RH  041%=      5-min Rain = 0
KCH1 190201Z 17007KT 32/17 A2989 RMK A01 T03180170  RH  041%=      5-min Rain = 0
KCH1 190202Z 16007KT 32/17 A2989 RMK A01 T03170170  RH  041%=      5-min Rain = 0
KCH1 190203Z 16006KT 32/17 A2989 RMK A01 T03160170  RH  042%=      5-min Rain = 0
KCH1 190204Z 16007KT 32/17 A2989 RMK A01 T03160169  RH  042%=      5-min Rain = 0
KCH1 190205Z 16006KT 32/17 A2989 RMK A01 T03150169  RH  041%=      5-min Rain = 0
KCH1 190206Z 16007KT 32/17 A2989 RMK A01 T03150169  RH  042%=      5-min Rain = 0
KCH1 190207Z 16007KT 32/17 A2989 RMK A01 T03150168  RH  042%=      5-min Rain = 0
KCH1 190208Z 16007KT 32/17 A2989 RMK A01 T03150168  RH  042%=      5-min Rain = 0
KCH1 190209Z 16006KT 32/17 A2989 RMK A01 T03150168  RH  041%=      5-min Rain = 0
KCH1 190210Z 16006KT 31/17 A2989 RMK A01 T03140168  RH  042%=      5-min Rain = 0
KCH1 190211Z 16006KT 31/17 A2989 RMK A01 T03130168  RH  042%=      5-min Rain = 0
KCH1 190212Z 16006KT 31/17 A2989 RMK A01 T03120168  RH  042%=      5-min Rain = 0
KCH1 190213Z 16005KT 31/17 A2989 RMK A01 T03110168  RH  042%=      5-min Rain = 0
KCH1 190214Z 16006KT 31/17 A299 RMK A01 T03110168  RH  042%=      5-min Rain = 0
KCH1 190215Z 16007KT 31/17 A299 RMK A01 T03110168  RH  042%=      5-min Rain = 0
KCH1 190216Z 15006KT 31/17 A299 RMK A01 T03110167  RH  042%=      5-min Rain = 0
KCH1 190217Z 15005KT 31/17 A299 RMK A01 T03100168  RH  042%=      5-min Rain = 0
KCH1 190218Z 16005KT 31/17 A299 RMK A01 T03090168  RH  043%=      5-min Rain = 0
KCH1 190219Z 16005KT 31/17 A299 RMK A01 T03080168  RH  043%=      5-min Rain = 0
KCH1 190220Z 16006KT 31/17 A299 RMK A01 T03080167  RH  043%=      5-min Rain = 0
KCH1 190221Z 16006KT 31/17 A299 RMK A01 T03080167  RH  043%=      5-min Rain = 0
KCH1 190222Z 16006KT 31/17 A299 RMK A01 T03080167  RH  043%=      5-min Rain = 0
KCH1 190223Z 16006KT 31/17 A299 RMK A01 T03080167  RH  043%=      5-min Rain = 0
KCH1 190224Z 16006KT 31/17 A299 RMK A01 T03080168  RH  043%=      5-min Rain = 0
KCH1 190225Z 16005KT 31/17 A299 RMK A01 T03070168  RH  043%=      5-min Rain = 0
KCH1 190226Z 16005KT 31/17 A299 RMK A01 T03070167  RH  043%=      5-min Rain = 0
KCH1 190227Z 16005KT 31/17 A299 RMK A01 T03060168  RH  043%=      5-min Rain = 0
KCH1 190228Z 15006KT 31/17 A299 RMK A01 T03050167  RH  044%=      5-min Rain = 0
KCH1 190229Z 16005KT 31/17 A299 RMK A01 T03050168  RH  044%=      5-min Rain = 0
KCH1 190230Z 16005KT 30/17 A299 RMK A01 T03040168  RH  044%=      5-min Rain = 0
KCH1 190231Z 16005KT 30/17 A299 RMK A01 T03040168  RH  044%=      5-min Rain = 0
KCH1 190232Z 16005KT 30/17 A299 RMK A01 T03030168  RH  044%=      5-min Rain = 0
KCH1 190233Z 15006KT 30/17 A299 RMK A01 T03030167  RH  044%=      5-min Rain = 0
KCH1 190234Z 15006KT 30/17 A299 RMK A01 T03020167  RH  044%=      5-min Rain = 0
KCH1 190235Z 16005KT 30/17 A299 RMK A01 T03020167  RH  044%=      5-min Rain = 0
KCH1 190236Z 15006KT 30/17 A299 RMK A01 T03020168  RH  044%=      5-min Rain = 0
KCH1 190237Z 15006KT 30/17 A299 RMK A01 T03020168  RH  044%=      5-min Rain = 0
KCH1 190238Z 16006KT 30/17 A299 RMK A01 T03020168  RH  045%=      5-min Rain = 0
KCH1 190239Z 15006KT 30/17 A299 RMK A01 T03010168  RH  045%=      5-min Rain = 0
KCH1 190240Z 16006KT 30/17 A299 RMK A01 T03010168  RH  045%=      5-min Rain = 0
KCH1 190241Z 15006KT 30/17 A299 RMK A01 T03000168  RH  045%=      5-min Rain = 0
KCH1 190242Z 15007KT 30/17 A299 RMK A01 T03000168  RH  045%=      5-min Rain = 0
KCH1 190243Z 15006KT 30/17 A2991 RMK A01 T02990169  RH  045%=      5-min Rain = 0
KCH1 190244Z 15007KT 30/17 A2991 RMK A01 T02990169  RH  046%=      5-min Rain = 0
KCH1 190245Z 15006KT 30/17 A2991 RMK A01 T02980169  RH  046%=      5-min Rain = 0
KCH1 190246Z 15007KT 30/17 A2991 RMK A01 T02980168  RH  046%=      5-min Rain = 0
KCH1 190247Z 15006KT 30/17 A2991 RMK A01 T02980169  RH  046%=      5-min Rain = 0
KCH1 190248Z 15006KT 30/17 A2991 RMK A01 T02980169  RH  046%=      5-min Rain = 0
KCH1 190249Z 15007KT 30/17 A2991 RMK A01 T02980169  RH  046%=      5-min Rain = 0
KCH1 190250Z 15007KT 30/17 A2991 RMK A01 T02980169  RH  046%=      5-min Rain = 0
KCH1 190251Z 15006KT 30/17 A2991 RMK A01 T02970169  RH  046%=      5-min Rain = 0
KCH1 190252Z 15006KT 30/17 A2991 RMK A01 T02970169  RH  046%=      5-min Rain = 0
KCH1 190253Z 15005KT 30/17 A2991 RMK A01 T02970170  RH  046%=      5-min Rain = 0
KCH1 190254Z 15006KT 30/17 A2991 RMK A01 T02950169  RH  047%=      5-min Rain = 0
KCH1 190255Z 14006KT 30/17 A2991 RMK A01 T02950169  RH  047%=      5-min Rain = 0
KCH1 190256Z 14006KT 29/17 A2991 RMK A01 T02940169  RH  047%=      5-min Rain = 0
KCH1 190257Z 15007KT 29/17 A2991 RMK A01 T02940169  RH  047%=      5-min Rain = 0
KCH1 190258Z 15006KT 29/17 A2991 RMK A01 T02940169  RH  047%=      5-min Rain = 0
KCH1 190259Z 15006KT 29/17 A2991 RMK A01 T02940169  RH  047%=      5-min Rain = 0
KCH1 190300Z 15006KT 29/17 A2991 RMK A01 T02940169  RH  047%=      5-min Rain = 0
KCH1 190301Z 16006KT 30/17 A2991 RMK A01 T02950169  RH  047%=      5-min Rain = 0
KCH1 190302Z 16006KT 30/17 A2991 RMK A01 T02950170  RH  047%=      5-min Rain = 0
KCH1 190303Z 16005KT 30/17 A2991 RMK A01 T02950169  RH  047%=      5-min Rain = 0
KCH1 190304Z 16006KT 29/17 A2991 RMK A01 T02940170  RH  047%=      5-min Rain = 0
KCH1 190305Z 16006KT 29/17 A2991 RMK A01 T02940169  RH  047%=      5-min Rain = 0
KCH1 190306Z 15006KT 29/17 A2991 RMK A01 T02940170  RH  047%=      5-min Rain = 0
KCH1 190307Z 15005KT 29/17 A2991 RMK A01 T02940170  RH  047%=      5-min Rain = 0
KCH1 190308Z 16005KT 29/17 A2991 RMK A01 T02930170  RH  047%=      5-min Rain = 0
KCH1 190309Z 15006KT 29/17 A2991 RMK A01 T02930170  RH  047%=      5-min Rain = 0
KCH1 190310Z 16006KT 29/17 A2991 RMK A01 T02930170  RH  048%=      5-min Rain = 0
KCH1 190311Z 16005KT 29/17 A2991 RMK A01 T02920170  RH  048%=      5-min Rain = 0
KCH1 190312Z 16005KT 29/17 A2991 RMK A01 T02920170  RH  048%=      5-min Rain = 0
KCH1 190313Z 16005KT 29/17 A2991 RMK A01 T02920170  RH  048%=      5-min Rain = 0
KCH1 190314Z 16005KT 29/17 A2991 RMK A01 T02910170  RH  048%=      5-min Rain = 0
KCH1 190315Z 16005KT 29/17 A2991 RMK A01 T02910170  RH  048%=      5-min Rain = 0
KCH1 190316Z 16005KT 29/17 A2991 RMK A01 T02910170  RH  048%=      5-min Rain = 0
KCH1 190317Z 17006KT 29/17 A2991 RMK A01 T02900170  RH  048%=      5-min Rain = 0
KCH1 190318Z 16006KT 29/17 A2991 RMK A01 T02900170  RH  048%=      5-min Rain = 0
KCH1 190319Z 16005KT 29/17 A2991 RMK A01 T02900170  RH  048%=      5-min Rain = 0
KCH1 190320Z 16005KT 29/17 A2991 RMK A01 T02900171  RH  049%=      5-min Rain = 0
KCH1 190321Z 16006KT 29/17 A2991 RMK A01 T02890170  RH  049%=      5-min Rain = 0
KCH1 190322Z 17005KT 29/17 A2991 RMK A01 T02880170  RH  049%=      5-min Rain = 0
KCH1 190323Z 17006KT 29/17 A2991 RMK A01 T02880170  RH  049%=      5-min Rain = 0
KCH1 190324Z 17006KT 29/17 A2991 RMK A01 T02880170  RH  049%=      5-min Rain = 0
KCH1 190325Z 17005KT 29/17 A2991 RMK A01 T02870170  RH  049%=      5-min Rain = 0
KCH1 190326Z 16006KT 29/17 A2991 RMK A01 T02870171  RH  049%=      5-min Rain = 0
KCH1 190327Z 16006KT 29/17 A2991 RMK A01 T02860170  RH  049%=      5-min Rain = 0
KCH1 190328Z 16005KT 29/17 A2991 RMK A01 T02860171  RH  050%=      5-min Rain = 0
KCH1 190329Z 15005KT 29/17 A2991 RMK A01 T02860171  RH  050%=      5-min Rain = 0
KCH1 190330Z 16006KT 29/17 A2991 RMK A01 T02850171  RH  050%=      5-min Rain = 0
KCH1 190331Z 16005KT 29/17 A2992 RMK A01 T02850170  RH  050%=      5-min Rain = 0
KCH1 190332Z 16005KT 28/17 A2992 RMK A01 T02840171  RH  050%=      5-min Rain = 0
KCH1 190333Z 16006KT 28/17 A2992 RMK A01 T02830170  RH  050%=      5-min Rain = 0
KCH1 190334Z 16005KT 28/17 A2992 RMK A01 T02830170  RH  050%=      5-min Rain = 0
KCH1 190335Z 16005KT 28/17 A2992 RMK A01 T02840170  RH  050%=      5-min Rain = 0
KCH1 190336Z 16004KT 28/17 A2992 RMK A01 T02830170  RH  050%=      5-min Rain = 0
KCH1 190337Z 16004KT 28/17 A2992 RMK A01 T02830171  RH  050%=      5-min Rain = 0
KCH1 190338Z 16004KT 28/17 A2992 RMK A01 T02820170  RH  051%=      5-min Rain = 0
KCH1 190339Z 15004KT 28/17 A2992 RMK A01 T02820170  RH  051%=      5-min Rain = 0
KCH1 190340Z 16003KT 28/17 A2992 RMK A01 T02820170  RH  051%=      5-min Rain = 0
KCH1 190341Z 15004KT 28/17 A2992 RMK A01 T02820170  RH  051%=      5-min Rain = 0
KCH1 190342Z 15004KT 28/17 A2992 RMK A01 T02810170  RH  051%=      5-min Rain = 0
KCH1 190343Z 16004KT 28/17 A2992 RMK A01 T02810170  RH  051%=      5-min Rain = 0
KCH1 190344Z 16004KT 28/17 A2992 RMK A01 T02800170  RH  051%=      5-min Rain = 0
KCH1 190345Z 15005KT 28/17 A2992 RMK A01 T02800170  RH  051%=      5-min Rain = 0
KCH1 190346Z 15004KT 28/17 A2992 RMK A01 T02790170  RH  051%=      5-min Rain = 0
KCH1 190347Z 16004KT 28/17 A2992 RMK A01 T02790170  RH  052%=      5-min Rain = 0
KCH1 190348Z 15004KT 28/17 A2992 RMK A01 T02790170  RH  052%=      5-min Rain = 0
KCH1 190349Z 16005KT 28/17 A2992 RMK A01 T02790170  RH  051%=      5-min Rain = 0
KCH1 190350Z 16005KT 28/17 A2992 RMK A01 T02790170  RH  051%=      5-min Rain = 0
KCH1 190351Z 16005KT 28/17 A2993 RMK A01 T02790169  RH  051%=      5-min Rain = 0
KCH1 190352Z 16005KT 28/17 A2993 RMK A01 T02790169  RH  051%=      5-min Rain = 0
KCH1 190353Z 16005KT 28/17 A2993 RMK A01 T02790169  RH  051%=      5-min Rain = 0
KCH1 190354Z 15003KT 28/17 A2993 RMK A01 T02790169  RH  051%=      5-min Rain = 0
KCH1 190355Z 16005KT 28/17 A2993 RMK A01 T02790170  RH  051%=      5-min Rain = 0
KCH1 190356Z 15005KT 28/17 A2993 RMK A01 T02790170  RH  052%=      5-min Rain = 0
KCH1 190357Z 16005KT 28/17 A2993 RMK A01 T02780170  RH  052%=      5-min Rain = 0
KCH1 190358Z 15005KT 28/17 A2993 RMK A01 T02780170  RH  052%=      5-min Rain = 0
KCH1 190359Z 15004KT 28/17 A2993 RMK A01 T02780170  RH  052%=      5-min Rain = 0
KCH1 190400Z 15005KT 28/17 A2993 RMK A01 T02780170  RH  052%=      5-min Rain = 0
KCH1 190401Z 15004KT 28/17 A2993 RMK A01 T02780170  RH  052%=      5-min Rain = 0
KCH1 190402Z 16005KT 28/17 A2993 RMK A01 T02770170  RH  052%=      5-min Rain = 0
KCH1 190403Z 15004KT 28/17 A2993 RMK A01 T02770170  RH  052%=      5-min Rain = 0
KCH1 190404Z 15006KT 28/17 A2993 RMK A01 T02770170  RH  052%=      5-min Rain = 0
KCH1 190405Z 15005KT 28/17 A2993 RMK A01 T02770170  RH  052%=      5-min Rain = 0
KCH1 190406Z 15005KT 28/17 A2993 RMK A01 T02770170  RH  052%=      5-min Rain = 0
KCH1 190407Z 15006KT 28/17 A2993 RMK A01 T02770170  RH  052%=      5-min Rain = 0
KCH1 190408Z 15005KT 28/17 A2993 RMK A01 T02770170  RH  052%=      5-min Rain = 0
KCH1 190409Z 15005KT 28/17 A2993 RMK A01 T02770170  RH  052%=      5-min Rain = 0
KCH1 190410Z 15005KT 28/17 A2993 RMK A01 T02760170  RH  052%=      5-min Rain = 0
KCH1 190411Z 15007KT 28/17 A2993 RMK A01 T02760170  RH  052%=      5-min Rain = 0
KCH1 190412Z 15006KT 28/17 A2993 RMK A01 T02760170  RH  052%=      5-min Rain = 0
KCH1 190413Z 15006KT 28/17 A2993 RMK A01 T02760170  RH  052%=      5-min Rain = 0
KCH1 190414Z 15005KT 28/17 A2993 RMK A01 T02760171  RH  053%=      5-min Rain = 0
KCH1 190415Z 15005KT 28/17 A2993 RMK A01 T02750171  RH  053%=      5-min Rain = 0
KCH1 190416Z 15006KT 28/17 A2993 RMK A01 T02750171  RH  053%=      5-min Rain = 0
KCH1 190417Z 15007KT 28/17 A2993 RMK A01 T02750171  RH  053%=      5-min Rain = 0
KCH1 190418Z 15005KT 28/17 A2993 RMK A01 T02750170  RH  053%=      5-min Rain = 0
KCH1 190419Z 15005KT 28/17 A2993 RMK A01 T02750171  RH  053%=      5-min Rain = 0
KCH1 190420Z 16006KT 28/17 A2993 RMK A01 T02750171  RH  053%=      5-min Rain = 0
KCH1 190421Z 16006KT 28/17 A2993 RMK A01 T02750171  RH  053%=      5-min Rain = 0
KCH1 190422Z 16006KT 28/17 A2993 RMK A01 T02750171  RH  053%=      5-min Rain = 0
KCH1 190423Z 16005KT 28/17 A2993 RMK A01 T02750171  RH  053%=      5-min Rain = 0
KCH1 190424Z 16006KT 28/17 A2994 RMK A01 T02750171  RH  053%=      5-min Rain = 0
KCH1 190425Z 16006KT 28/17 A2994 RMK A01 T02750171  RH  053%=      5-min Rain = 0
KCH1 190426Z 16005KT 28/17 A2994 RMK A01 T02750171  RH  053%=      5-min Rain = 0
KCH1 190427Z 16005KT 28/17 A2994 RMK A01 T02760172  RH  053%=      5-min Rain = 0
KCH1 190428Z 16007KT 28/17 A2994 RMK A01 T02760172  RH  053%=      5-min Rain = 0
KCH1 190429Z 16006KT 28/17 A2994 RMK A01 T02760171  RH  053%=      5-min Rain = 0
KCH1 190430Z 16006KT 28/17 A2994 RMK A01 T02760172  RH  053%=      5-min Rain = 0
KCH1 190431Z 16006KT 28/17 A2994 RMK A01 T02760172  RH  053%=      5-min Rain = 0
KCH1 190432Z 15007KT 28/17 A2994 RMK A01 T02760172  RH  053%=      5-min Rain = 0
KCH1 190433Z 15008KT 28/17 A2994 RMK A01 T02760172  RH  053%=      5-min Rain = 0
KCH1 190434Z 16006KT 28/17 A2994 RMK A01 T02770172  RH  053%=      5-min Rain = 0
KCH1 190435Z 15006KT 28/17 A2994 RMK A01 T02780172  RH  053%=      5-min Rain = 0
KCH1 190436Z 15005KT 28/17 A2994 RMK A01 T02770172  RH  053%=      5-min Rain = 0
KCH1 190437Z 15006KT 28/17 A2994 RMK A01 T02770173  RH  053%=      5-min Rain = 0
KCH1 190438Z 15005KT 28/17 A2994 RMK A01 T02770173  RH  053%=      5-min Rain = 0
KCH1 190439Z 15006KT 28/17 A2994 RMK A01 T02770173  RH  053%=      5-min Rain = 0
KCH1 190440Z 16006KT 28/17 A2994 RMK A01 T02760173  RH  053%=      5-min Rain = 0
KCH1 190441Z 15005KT 28/17 A2994 RMK A01 T02760172  RH  053%=      5-min Rain = 0
KCH1 190442Z 15005KT 28/17 A2994 RMK A01 T02760173  RH  053%=      5-min Rain = 0
KCH1 190443Z 15005KT 28/17 A2994 RMK A01 T02760173  RH  053%=      5-min Rain = 0
KCH1 190444Z 15006KT 28/17 A2994 RMK A01 T02760173  RH  054%=      5-min Rain = 0
KCH1 190445Z 15006KT 28/17 A2994 RMK A01 T02750173  RH  054%=      5-min Rain = 0
KCH1 190446Z 15006KT 28/17 A2994 RMK A01 T02750173  RH  054%=      5-min Rain = 0
KCH1 190447Z 15007KT 28/17 A2995 RMK A01 T02750173  RH  054%=      5-min Rain = 0
KCH1 190448Z 14006KT 28/17 A2995 RMK A01 T02750173  RH  054%=      5-min Rain = 0
KCH1 190449Z 15007KT 27/17 A2995 RMK A01 T02740173  RH  054%=      5-min Rain = 0
KCH1 190450Z 16006KT 27/17 A2995 RMK A01 T02740173  RH  054%=      5-min Rain = 0
KCH1 190451Z 15007KT 27/17 A2995 RMK A01 T02740173  RH  054%=      5-min Rain = 0
KCH1 190452Z 15007KT 28/17 A2995 RMK A01 T02750173  RH  054%=      5-min Rain = 0
KCH1 190453Z 15007KT 28/17 A2995 RMK A01 T02750173  RH  054%=      5-min Rain = 0
KCH1 190454Z 15007KT 28/17 A2995 RMK A01 T02750173  RH  054%=      5-min Rain = 0
KCH1 190455Z 15005KT 28/17 A2995 RMK A01 T02750174  RH  054%=      5-min Rain = 0
KCH1 190456Z 15007KT 27/17 A2995 RMK A01 T02740173  RH  054%=      5-min Rain = 0
KCH1 190457Z 16007KT 27/17 A2995 RMK A01 T02740173  RH  054%=      5-min Rain = 0
KCH1 190458Z 16008KT 27/17 A2995 RMK A01 T02740173  RH  054%=      5-min Rain = 0
KCH1 190459Z 16007KT 27/17 A2995 RMK A01 T02740173  RH  054%=      5-min Rain = 0

Page generated in 0.1219 seconds.